AFR28 KLAX-NTAA
Flight info
| Callsign | AFR28 |
|---|---|
| Flight time | N/A |
| Altitude | 38000 |
| Route | ZILLI5 FICKY G575 ORARE DCT ASOKI ASOKI4K |
| Aircraft | A359/H-SABDE2E3GHIJ1J2J3J4J5M1P2RWXYZ/LB1D1 |
Departure
| Time | N/A |
|---|---|
| Airport | Los Angeles International Airport (KLAX) |
Arrival
| Time | 2026-04-29 17:40 |
|---|---|
| Airport | Fa'a'ā International Airport (NTAA) |
| Time | Latitude | Longitude | Altitude | Speed | Heading |
|---|---|---|---|---|---|
| 2026-04-29 09:37 | 33.78943 | -118.78325 | 10350 ft | 288 kts | 229° |
| 2026-04-29 09:38 | 33.77538 | -118.80112 | 10562 ft | 301 kts | 228° |
| 2026-04-29 09:38 | 33.76054 | -118.81956 | 10761 ft | 313 kts | 227° |
| 2026-04-29 09:38 | 33.74497 | -118.83858 | 10960 ft | 325 kts | 227° |
| 2026-04-29 09:38 | 33.72878 | -118.85817 | 11158 ft | 336 kts | 227° |
| 2026-04-29 09:39 | 33.71202 | -118.87838 | 11341 ft | 346 kts | 227° |
| 2026-04-29 09:39 | 33.69479 | -118.89913 | 11563 ft | 355 kts | 227° |
| 2026-04-29 09:39 | 33.67725 | -118.92024 | 11922 ft | 359 kts | 227° |
| 2026-04-29 09:39 | 33.65959 | -118.94151 | 12315 ft | 361 kts | 227° |
| 2026-04-29 09:40 | 33.64181 | -118.96293 | 12729 ft | 363 kts | 227° |
| 2026-04-29 09:40 | 33.62391 | -118.98451 | 13105 ft | 366 kts | 227° |
| 2026-04-29 09:40 | 33.60589 | -119.00623 | 13492 ft | 368 kts | 227° |
| 2026-04-29 09:40 | 33.58776 | -119.02808 | 13880 ft | 371 kts | 227° |
| 2026-04-29 09:41 | 33.57546 | -119.04289 | 14111 ft | 372 kts | 227° |
| 2026-04-29 09:41 | 33.55717 | -119.06491 | 14480 ft | 373 kts | 227° |
| 2026-04-29 09:41 | 33.53882 | -119.08697 | 14853 ft | 374 kts | 227° |
| 2026-04-29 09:41 | 33.52039 | -119.10911 | 15220 ft | 376 kts | 227° |
| 2026-04-29 09:42 | 33.50189 | -119.13133 | 15592 ft | 377 kts | 226° |
| 2026-04-29 09:42 | 33.48332 | -119.15362 | 15958 ft | 379 kts | 226° |
| 2026-04-29 09:42 | 33.46469 | -119.17597 | 16323 ft | 380 kts | 226° |
| 2026-04-29 09:42 | 33.44598 | -119.19840 | 16703 ft | 381 kts | 226° |
| 2026-04-29 09:43 | 33.42718 | -119.22093 | 17043 ft | 383 kts | 226° |
| 2026-04-29 09:43 | 33.40833 | -119.24350 | 17404 ft | 385 kts | 226° |
| 2026-04-29 09:43 | 33.38933 | -119.26624 | 17717 ft | 387 kts | 226° |
| 2026-04-29 09:43 | 33.37022 | -119.28909 | 18034 ft | 389 kts | 226° |
| 2026-04-29 09:44 | 33.35104 | -119.31201 | 18389 ft | 391 kts | 225° |
| 2026-04-29 09:44 | 33.33177 | -119.33503 | 18695 ft | 392 kts | 226° |
| 2026-04-29 09:44 | 33.31243 | -119.35810 | 18971 ft | 394 kts | 226° |
| 2026-04-29 09:44 | 33.29301 | -119.38127 | 19252 ft | 395 kts | 226° |
| 2026-04-29 09:45 | 33.27350 | -119.40451 | 19534 ft | 397 kts | 226° |
| 2026-04-29 09:45 | 33.25397 | -119.42778 | 19878 ft | 396 kts | 226° |
| 2026-04-29 09:45 | 33.23441 | -119.45106 | 20147 ft | 398 kts | 226° |
| 2026-04-29 09:45 | 33.21472 | -119.47449 | 20409 ft | 400 kts | 226° |
| 2026-04-29 09:46 | 33.19496 | -119.49798 | 20677 ft | 402 kts | 226° |
| 2026-04-29 09:46 | 33.17509 | -119.52158 | 20948 ft | 403 kts | 226° |
| 2026-04-29 09:46 | 33.15516 | -119.54524 | 21206 ft | 405 kts | 226° |
| 2026-04-29 09:46 | 33.13510 | -119.56904 | 21419 ft | 408 kts | 226° |
| 2026-04-29 09:47 | 33.11495 | -119.59293 | 21678 ft | 410 kts | 226° |
| 2026-04-29 09:47 | 33.09496 | -119.61661 | 21912 ft | 411 kts | 226° |
| 2026-04-29 09:47 | 33.07465 | -119.64066 | 22189 ft | 412 kts | 226° |
| 2026-04-29 09:47 | 33.05398 | -119.66511 | 22452 ft | 414 kts | 226° |
| 2026-04-29 09:48 | 33.03350 | -119.68932 | 22712 ft | 415 kts | 226° |
| 2026-04-29 09:48 | 33.01325 | -119.71325 | 22959 ft | 417 kts | 226° |
| 2026-04-29 09:48 | 32.99262 | -119.73759 | 23215 ft | 418 kts | 226° |
| 2026-04-29 09:48 | 32.97190 | -119.76204 | 23458 ft | 420 kts | 227° |
| 2026-04-29 09:49 | 32.95112 | -119.78654 | 23690 ft | 421 kts | 227° |
| 2026-04-29 09:49 | 32.93026 | -119.81112 | 23892 ft | 423 kts | 227° |
| 2026-04-29 09:49 | 32.90932 | -119.83576 | 24122 ft | 423 kts | 227° |
| 2026-04-29 09:49 | 32.88833 | -119.86046 | 24300 ft | 425 kts | 227° |
| 2026-04-29 09:50 | 32.86734 | -119.88513 | 24592 ft | 424 kts | 227° |
| 2026-04-29 09:50 | 32.84643 | -119.90970 | 24909 ft | 422 kts | 227° |
| 2026-04-29 09:50 | 32.82558 | -119.93416 | 25215 ft | 420 kts | 227° |
| 2026-04-29 09:50 | 32.80478 | -119.95855 | 25509 ft | 419 kts | 227° |
| 2026-04-29 09:51 | 32.78406 | -119.98284 | 25791 ft | 418 kts | 227° |
| 2026-04-29 09:51 | 32.76336 | -120.00708 | 26072 ft | 418 kts | 227° |
| 2026-04-29 09:51 | 32.74269 | -120.03129 | 26346 ft | 417 kts | 227° |
| 2026-04-29 09:51 | 32.72205 | -120.05543 | 26630 ft | 416 kts | 227° |
| 2026-04-29 09:52 | 32.70146 | -120.07951 | 26907 ft | 415 kts | 227° |
| 2026-04-29 09:52 | 32.68085 | -120.10359 | 27184 ft | 415 kts | 227° |
| 2026-04-29 09:52 | 32.66032 | -120.12757 | 27435 ft | 415 kts | 227° |
| 2026-04-29 09:52 | 32.63971 | -120.15163 | 27660 ft | 416 kts | 227° |
| 2026-04-29 09:53 | 32.61910 | -120.17567 | 27956 ft | 415 kts | 227° |
| 2026-04-29 09:53 | 32.59854 | -120.19961 | 28248 ft | 414 kts | 226° |
| 2026-04-29 09:53 | 32.57797 | -120.22355 | 28477 ft | 415 kts | 226° |
| 2026-04-29 09:53 | 32.55738 | -120.24750 | 28748 ft | 414 kts | 227° |
| 2026-04-29 09:54 | 32.53681 | -120.27142 | 29040 ft | 414 kts | 227° |
| 2026-04-29 09:54 | 32.51631 | -120.29524 | 29328 ft | 413 kts | 227° |
| 2026-04-29 09:54 | 32.49552 | -120.31937 | 29614 ft | 412 kts | 227° |
| 2026-04-29 09:54 | 32.47533 | -120.34280 | 29888 ft | 412 kts | 227° |
| 2026-04-29 09:55 | 32.45490 | -120.36649 | 30148 ft | 411 kts | 227° |
| 2026-04-29 09:55 | 32.43446 | -120.39018 | 30370 ft | 411 kts | 227° |
| 2026-04-29 09:55 | 32.41396 | -120.41393 | 30551 ft | 413 kts | 226° |
| 2026-04-29 09:55 | 32.39314 | -120.43803 | 30701 ft | 414 kts | 226° |
| 2026-04-29 09:56 | 32.37279 | -120.46156 | 30886 ft | 415 kts | 226° |
| 2026-04-29 09:56 | 32.35218 | -120.48537 | 31085 ft | 415 kts | 226° |
| 2026-04-29 09:56 | 32.33153 | -120.50922 | 31271 ft | 415 kts | 226° |
| 2026-04-29 09:56 | 32.31085 | -120.53309 | 31451 ft | 416 kts | 226° |
| 2026-04-29 09:57 | 32.29017 | -120.55693 | 31665 ft | 415 kts | 226° |
| 2026-04-29 09:57 | 32.26955 | -120.58070 | 31958 ft | 413 kts | 226° |
| 2026-04-29 09:57 | 32.24906 | -120.60430 | 32220 ft | 411 kts | 225° |
| 2026-04-29 09:57 | 32.22863 | -120.62782 | 32494 ft | 409 kts | 225° |
| 2026-04-29 09:58 | 32.20829 | -120.65122 | 32762 ft | 407 kts | 225° |
| 2026-04-29 09:58 | 32.18805 | -120.67448 | 33026 ft | 406 kts | 225° |
| 2026-04-29 09:58 | 32.16786 | -120.69768 | 33304 ft | 404 kts | 225° |
| 2026-04-29 09:58 | 32.14776 | -120.72074 | 33574 ft | 402 kts | 225° |
| 2026-04-29 09:59 | 32.12747 | -120.74403 | 33838 ft | 401 kts | 225° |
| 2026-04-29 09:59 | 32.10778 | -120.76661 | 34109 ft | 399 kts | 225° |
| 2026-04-29 09:59 | 32.08790 | -120.78939 | 34327 ft | 398 kts | 225° |
| 2026-04-29 09:59 | 32.06779 | -120.81242 | 34503 ft | 398 kts | 225° |
| 2026-04-29 10:00 | 32.04821 | -120.83483 | 34666 ft | 398 kts | 225° |
| 2026-04-29 10:00 | 32.02836 | -120.85753 | 34838 ft | 397 kts | 225° |
| 2026-04-29 10:00 | 32.00854 | -120.88019 | 35018 ft | 397 kts | 225° |
| 2026-04-29 10:00 | 31.98875 | -120.90280 | 35178 ft | 396 kts | 225° |
| 2026-04-29 10:01 | 31.96895 | -120.92539 | 35360 ft | 396 kts | 225° |
| 2026-04-29 10:01 | 31.94918 | -120.94794 | 35526 ft | 396 kts | 225° |
| 2026-04-29 10:01 | 31.92944 | -120.97045 | 35716 ft | 395 kts | 225° |
| 2026-04-29 10:01 | 31.90972 | -120.99291 | 35917 ft | 394 kts | 225° |
| 2026-04-29 10:02 | 31.89005 | -121.01532 | 36101 ft | 393 kts | 225° |
| 2026-04-29 10:02 | 31.87033 | -121.03776 | 36170 ft | 396 kts | 225° |
| 2026-04-29 10:02 | 31.83045 | -121.08311 | 36176 ft | 400 kts | 225° |
| 2026-04-29 10:03 | 31.79043 | -121.12853 | 36176 ft | 399 kts | 225° |
| 2026-04-29 10:03 | 31.75047 | -121.17384 | 36176 ft | 399 kts | 225° |
| 2026-04-29 10:04 | 31.71046 | -121.21915 | 36178 ft | 399 kts | 225° |
| 2026-04-29 10:04 | 31.67048 | -121.26438 | 36181 ft | 399 kts | 225° |
| 2026-04-29 10:05 | 31.63050 | -121.30955 | 36178 ft | 399 kts | 224° |
| 2026-04-29 10:05 | 31.59051 | -121.35467 | 36179 ft | 399 kts | 224° |
| 2026-04-29 10:06 | 31.54853 | -121.39732 | 36178 ft | 401 kts | 217° |
| 2026-04-29 10:06 | 31.50193 | -121.43352 | 36181 ft | 402 kts | 215° |
| 2026-04-29 10:07 | 31.45455 | -121.46851 | 36181 ft | 403 kts | 215° |
| 2026-04-29 10:07 | 31.40707 | -121.50333 | 36181 ft | 403 kts | 215° |
| 2026-04-29 10:08 | 31.35963 | -121.53825 | 36183 ft | 402 kts | 215° |
| 2026-04-29 10:08 | 31.31241 | -121.57305 | 36534 ft | 398 kts | 215° |
| 2026-04-29 10:09 | 31.28912 | -121.59021 | 36811 ft | 395 kts | 215° |
| 2026-04-29 10:09 | 31.26585 | -121.60735 | 36981 ft | 395 kts | 215° |
| 2026-04-29 10:09 | 31.24264 | -121.62445 | 37136 ft | 394 kts | 215° |
| 2026-04-29 10:09 | 31.21944 | -121.64152 | 37299 ft | 394 kts | 215° |
| 2026-04-29 10:10 | 31.19630 | -121.65854 | 37457 ft | 393 kts | 215° |
| 2026-04-29 10:10 | 31.17318 | -121.67554 | 37605 ft | 393 kts | 215° |
| 2026-04-29 10:10 | 31.15004 | -121.69254 | 37737 ft | 392 kts | 215° |
| 2026-04-29 10:10 | 31.12695 | -121.70948 | 37881 ft | 392 kts | 215° |
| 2026-04-29 10:11 | 31.10392 | -121.72637 | 38006 ft | 391 kts | 215° |
| 2026-04-29 10:11 | 31.08087 | -121.74327 | 38128 ft | 391 kts | 215° |
| 2026-04-29 10:11 | 31.03461 | -121.77717 | 38185 ft | 395 kts | 215° |
| 2026-04-29 10:12 | 30.98789 | -121.81137 | 38192 ft | 397 kts | 214° |
| 2026-04-29 10:12 | 30.94108 | -121.84557 | 38180 ft | 398 kts | 214° |
| 2026-04-29 10:13 | 30.89417 | -121.87980 | 38186 ft | 398 kts | 214° |
| 2026-04-29 10:13 | 30.84725 | -121.91401 | 38185 ft | 398 kts | 214° |
| 2026-04-29 10:14 | 30.80034 | -121.94816 | 38187 ft | 398 kts | 214° |
| 2026-04-29 10:14 | 30.75340 | -121.98231 | 38194 ft | 398 kts | 214° |
| 2026-04-29 10:15 | 30.70648 | -122.01640 | 38196 ft | 398 kts | 214° |
| 2026-04-29 10:15 | 30.65952 | -122.05047 | 38190 ft | 399 kts | 214° |
| 2026-04-29 10:16 | 30.62029 | -122.07892 | 38204 ft | 402 kts | 214° |
| 2026-04-29 10:16 | 30.56524 | -122.11878 | 38190 ft | 401 kts | 214° |
| 2026-04-29 10:17 | 30.51796 | -122.15296 | 38188 ft | 400 kts | 214° |
| 2026-04-29 10:17 | 30.47070 | -122.18710 | 38191 ft | 400 kts | 214° |
| 2026-04-29 10:18 | 30.42339 | -122.22123 | 38188 ft | 400 kts | 214° |
| 2026-04-29 10:18 | 30.37612 | -122.25530 | 38181 ft | 400 kts | 214° |
| 2026-04-29 10:19 | 30.32873 | -122.28941 | 38190 ft | 401 kts | 214° |
| 2026-04-29 10:19 | 30.28131 | -122.32350 | 38189 ft | 401 kts | 214° |
| 2026-04-29 10:20 | 30.23386 | -122.35758 | 38199 ft | 401 kts | 214° |
| 2026-04-29 10:20 | 30.18650 | -122.39155 | 38185 ft | 400 kts | 214° |
| 2026-04-29 10:21 | 30.13916 | -122.42547 | 38192 ft | 400 kts | 214° |
| 2026-04-29 10:21 | 30.09183 | -122.45934 | 38186 ft | 400 kts | 214° |
| 2026-04-29 10:22 | 30.04444 | -122.49323 | 38191 ft | 401 kts | 214° |
| 2026-04-29 10:22 | 29.99694 | -122.52715 | 38193 ft | 402 kts | 214° |
| 2026-04-29 10:23 | 29.95763 | -122.55566 | 38192 ft | 401 kts | 214° |
| 2026-04-29 10:23 | 29.91340 | -122.58820 | 38192 ft | 401 kts | 214° |
| 2026-04-29 10:24 | 29.86630 | -122.62282 | 38206 ft | 401 kts | 214° |
| 2026-04-29 10:24 | 29.81924 | -122.65726 | 38187 ft | 401 kts | 214° |
| 2026-04-29 10:25 | 29.77214 | -122.69163 | 38172 ft | 401 kts | 214° |
| 2026-04-29 10:25 | 29.72502 | -122.72599 | 38191 ft | 402 kts | 214° |
| 2026-04-29 10:26 | 29.67775 | -122.76041 | 38190 ft | 402 kts | 214° |
| 2026-04-29 10:26 | 29.63055 | -122.79474 | 38189 ft | 402 kts | 214° |
| 2026-04-29 10:27 | 29.55967 | -122.84623 | 38189 ft | 402 kts | 214° |
| 2026-04-29 10:28 | 29.51241 | -122.88051 | 38186 ft | 402 kts | 214° |
| 2026-04-29 10:28 | 29.46520 | -122.91471 | 38180 ft | 400 kts | 214° |
| 2026-04-29 10:29 | 29.41810 | -122.94881 | 38185 ft | 400 kts | 214° |
| 2026-04-29 10:29 | 29.37102 | -122.98284 | 38179 ft | 400 kts | 214° |
| 2026-04-29 10:30 | 29.32395 | -123.01684 | 38180 ft | 400 kts | 214° |
| 2026-04-29 10:30 | 29.27686 | -123.05081 | 38179 ft | 400 kts | 214° |
| 2026-04-29 10:31 | 29.22973 | -123.08477 | 38177 ft | 400 kts | 214° |
| 2026-04-29 10:31 | 29.18263 | -123.11867 | 38175 ft | 400 kts | 214° |
| 2026-04-29 10:32 | 29.13548 | -123.15257 | 38172 ft | 401 kts | 214° |
| 2026-04-29 10:32 | 29.08833 | -123.18644 | 38173 ft | 399 kts | 214° |
| 2026-04-29 10:33 | 29.04137 | -123.22012 | 38174 ft | 398 kts | 214° |
| 2026-04-29 10:33 | 28.99446 | -123.25374 | 38180 ft | 398 kts | 214° |
| 2026-04-29 10:34 | 28.94756 | -123.28732 | 38175 ft | 398 kts | 214° |
| 2026-04-29 10:34 | 28.90065 | -123.32086 | 38173 ft | 398 kts | 214° |
| 2026-04-29 10:35 | 28.85375 | -123.35436 | 38177 ft | 398 kts | 214° |
| 2026-04-29 10:35 | 28.80684 | -123.38784 | 38173 ft | 398 kts | 214° |
| 2026-04-29 10:36 | 28.75988 | -123.42131 | 38177 ft | 398 kts | 214° |
| 2026-04-29 10:36 | 28.71295 | -123.45472 | 38172 ft | 398 kts | 214° |
| 2026-04-29 10:37 | 28.66600 | -123.48812 | 38167 ft | 398 kts | 214° |
| 2026-04-29 10:37 | 28.61904 | -123.52147 | 38172 ft | 398 kts | 214° |
| 2026-04-29 10:38 | 28.57240 | -123.55458 | 38166 ft | 398 kts | 214° |
| 2026-04-29 10:38 | 28.52507 | -123.58814 | 38167 ft | 399 kts | 214° |
| 2026-04-29 10:39 | 28.47827 | -123.62128 | 38166 ft | 399 kts | 214° |
| 2026-04-29 10:39 | 28.43107 | -123.65467 | 38165 ft | 399 kts | 214° |
| 2026-04-29 10:40 | 28.38392 | -123.68799 | 38186 ft | 399 kts | 214° |
| 2026-04-29 10:40 | 28.33690 | -123.72118 | 38164 ft | 396 kts | 214° |
| 2026-04-29 10:41 | 28.29021 | -123.75411 | 38164 ft | 395 kts | 214° |
| 2026-04-29 10:41 | 28.24351 | -123.78701 | 38144 ft | 395 kts | 214° |
| 2026-04-29 10:42 | 28.19672 | -123.81995 | 38157 ft | 397 kts | 214° |
| 2026-04-29 10:42 | 28.14974 | -123.85298 | 38158 ft | 397 kts | 214° |
| 2026-04-29 10:43 | 28.10278 | -123.88595 | 38158 ft | 397 kts | 214° |
| 2026-04-29 10:43 | 28.05583 | -123.91888 | 38154 ft | 397 kts | 214° |
| 2026-04-29 10:44 | 28.00887 | -123.95179 | 38155 ft | 397 kts | 214° |
| 2026-04-29 10:44 | 27.96199 | -123.98462 | 38161 ft | 396 kts | 214° |
| 2026-04-29 10:45 | 27.91514 | -124.01738 | 38146 ft | 397 kts | 214° |
| 2026-04-29 10:45 | 27.86812 | -124.05024 | 38145 ft | 398 kts | 214° |
| 2026-04-29 10:46 | 27.82105 | -124.08309 | 38144 ft | 398 kts | 214° |
| 2026-04-29 10:46 | 27.77393 | -124.11594 | 38143 ft | 398 kts | 214° |
| 2026-04-29 10:47 | 27.72682 | -124.14875 | 38144 ft | 398 kts | 214° |
| 2026-04-29 10:47 | 27.67972 | -124.18152 | 38141 ft | 398 kts | 214° |
| 2026-04-29 10:48 | 27.63263 | -124.21425 | 38118 ft | 398 kts | 214° |
| 2026-04-29 10:48 | 27.58533 | -124.24712 | 38141 ft | 399 kts | 215° |
| 2026-04-29 10:49 | 27.53816 | -124.27982 | 38138 ft | 398 kts | 215° |
| 2026-04-29 10:49 | 27.49100 | -124.31249 | 38138 ft | 398 kts | 215° |
| 2026-04-29 10:50 | 27.44381 | -124.34515 | 38135 ft | 398 kts | 215° |
| 2026-04-29 10:50 | 27.39666 | -124.37776 | 38135 ft | 398 kts | 215° |
| 2026-04-29 10:51 | 27.34951 | -124.41033 | 38138 ft | 398 kts | 215° |
| 2026-04-29 10:51 | 27.30230 | -124.44291 | 38128 ft | 399 kts | 215° |
| 2026-04-29 10:52 | 27.25503 | -124.47550 | 38130 ft | 399 kts | 215° |
| 2026-04-29 10:52 | 27.20783 | -124.50801 | 38131 ft | 397 kts | 215° |
| 2026-04-29 10:53 | 27.16083 | -124.54034 | 38132 ft | 396 kts | 215° |
| 2026-04-29 10:53 | 27.11384 | -124.57264 | 38133 ft | 396 kts | 215° |
| 2026-04-29 10:54 | 27.06683 | -124.60492 | 38129 ft | 396 kts | 215° |
| 2026-04-29 10:54 | 27.01984 | -124.63716 | 38094 ft | 396 kts | 215° |
| 2026-04-29 10:55 | 26.97267 | -124.66949 | 38118 ft | 398 kts | 215° |
| 2026-04-29 10:55 | 26.92534 | -124.70189 | 38131 ft | 399 kts | 215° |
| 2026-04-29 10:56 | 26.87797 | -124.73428 | 38127 ft | 399 kts | 215° |
| 2026-04-29 10:56 | 26.83064 | -124.76661 | 38113 ft | 398 kts | 215° |
| 2026-04-29 10:57 | 26.78329 | -124.79894 | 38128 ft | 398 kts | 215° |
| 2026-04-29 10:57 | 26.73599 | -124.83119 | 38123 ft | 398 kts | 215° |
| 2026-04-29 10:58 | 26.68896 | -124.86323 | 38111 ft | 399 kts | 215° |
| 2026-04-29 10:58 | 26.64118 | -124.89575 | 38112 ft | 400 kts | 215° |
| 2026-04-29 10:59 | 26.59397 | -124.92785 | 38113 ft | 400 kts | 215° |
| 2026-04-29 10:59 | 26.54645 | -124.96012 | 38108 ft | 400 kts | 215° |
| 2026-04-29 11:00 | 26.49894 | -124.99236 | 38110 ft | 400 kts | 215° |
| 2026-04-29 11:00 | 26.45143 | -125.02456 | 38112 ft | 399 kts | 215° |
| 2026-04-29 11:01 | 26.40361 | -125.05695 | 38059 ft | 399 kts | 215° |
| 2026-04-29 11:01 | 26.35636 | -125.08892 | 38103 ft | 401 kts | 215° |
| 2026-04-29 11:02 | 26.30868 | -125.12115 | 38102 ft | 401 kts | 215° |
| 2026-04-29 11:02 | 26.26102 | -125.15333 | 38102 ft | 401 kts | 215° |
| 2026-04-29 11:03 | 26.21334 | -125.18549 | 38100 ft | 401 kts | 215° |
| 2026-04-29 11:03 | 26.16566 | -125.21762 | 38100 ft | 401 kts | 215° |
| 2026-04-29 11:04 | 26.11800 | -125.24972 | 38104 ft | 401 kts | 215° |
| 2026-04-29 11:04 | 26.07020 | -125.28187 | 38095 ft | 402 kts | 215° |
| 2026-04-29 11:05 | 26.02227 | -125.31408 | 38097 ft | 403 kts | 215° |
| 2026-04-29 11:05 | 25.97432 | -125.34627 | 38096 ft | 403 kts | 215° |
| 2026-04-29 11:06 | 25.92634 | -125.37845 | 38095 ft | 403 kts | 215° |
| 2026-04-29 11:06 | 25.87836 | -125.41059 | 38093 ft | 403 kts | 215° |
| 2026-04-29 11:07 | 25.83846 | -125.43731 | 38096 ft | 403 kts | 215° |
| 2026-04-29 11:07 | 25.79048 | -125.46940 | 38092 ft | 403 kts | 215° |
| 2026-04-29 11:08 | 25.74252 | -125.50145 | 38091 ft | 403 kts | 215° |
| 2026-04-29 11:08 | 25.69445 | -125.53354 | 38093 ft | 404 kts | 215° |
| 2026-04-29 11:09 | 25.64624 | -125.56570 | 38087 ft | 404 kts | 215° |
| 2026-04-29 11:09 | 25.59807 | -125.59779 | 38089 ft | 404 kts | 215° |
| 2026-04-29 11:10 | 25.54984 | -125.62990 | 38090 ft | 404 kts | 215° |
| 2026-04-29 11:10 | 25.50159 | -125.66198 | 38089 ft | 404 kts | 215° |
| 2026-04-29 11:11 | 25.45338 | -125.69402 | 38084 ft | 405 kts | 215° |
| 2026-04-29 11:11 | 25.40498 | -125.72615 | 38090 ft | 406 kts | 215° |
| 2026-04-29 11:12 | 25.35654 | -125.75828 | 38091 ft | 406 kts | 214° |
| 2026-04-29 11:12 | 25.30797 | -125.79046 | 38087 ft | 407 kts | 214° |
| 2026-04-29 11:13 | 25.25935 | -125.82264 | 38083 ft | 408 kts | 214° |
| 2026-04-29 11:13 | 25.21069 | -125.85481 | 38087 ft | 408 kts | 214° |
| 2026-04-29 11:14 | 25.16201 | -125.88697 | 38046 ft | 408 kts | 214° |
| 2026-04-29 11:14 | 25.11309 | -125.91928 | 38088 ft | 412 kts | 214° |
| 2026-04-29 11:15 | 25.06376 | -125.95182 | 38085 ft | 413 kts | 214° |
| 2026-04-29 11:15 | 25.01439 | -125.98432 | 38086 ft | 413 kts | 214° |
| 2026-04-29 11:16 | 24.96506 | -126.01678 | 38087 ft | 413 kts | 214° |
| 2026-04-29 11:16 | 24.91574 | -126.04921 | 38087 ft | 413 kts | 214° |
| 2026-04-29 11:17 | 24.86638 | -126.08164 | 38083 ft | 413 kts | 214° |
| 2026-04-29 11:17 | 24.81701 | -126.11404 | 38083 ft | 413 kts | 214° |
| 2026-04-29 11:18 | 24.76761 | -126.14643 | 38078 ft | 413 kts | 214° |
| 2026-04-29 11:18 | 24.71816 | -126.17883 | 38080 ft | 414 kts | 214° |
| 2026-04-29 11:19 | 24.66869 | -126.21121 | 38084 ft | 414 kts | 214° |
| 2026-04-29 11:19 | 24.61959 | -126.24331 | 38080 ft | 414 kts | 214° |
| 2026-04-29 11:20 | 24.57002 | -126.27570 | 38081 ft | 416 kts | 214° |
| 2026-04-29 11:20 | 24.52022 | -126.30822 | 38078 ft | 416 kts | 214° |
| 2026-04-29 11:21 | 24.47058 | -126.34057 | 38075 ft | 414 kts | 214° |
| 2026-04-29 11:21 | 24.42101 | -126.37285 | 38075 ft | 414 kts | 214° |
| 2026-04-29 11:22 | 24.37145 | -126.40511 | 38077 ft | 414 kts | 214° |
| 2026-04-29 11:22 | 24.32188 | -126.43734 | 38075 ft | 414 kts | 214° |
| 2026-04-29 11:23 | 24.27228 | -126.46956 | 38072 ft | 414 kts | 214° |
| 2026-04-29 11:23 | 24.22268 | -126.50176 | 38064 ft | 414 kts | 214° |
| 2026-04-29 11:24 | 24.17320 | -126.53383 | 38075 ft | 414 kts | 214° |
| 2026-04-29 11:24 | 24.12357 | -126.56599 | 38070 ft | 415 kts | 214° |
| 2026-04-29 11:25 | 24.07386 | -126.59817 | 38068 ft | 415 kts | 214° |
| 2026-04-29 11:25 | 24.02416 | -126.63031 | 38069 ft | 415 kts | 214° |
| 2026-04-29 11:26 | 23.94963 | -126.67845 | 38067 ft | 415 kts | 214° |
| 2026-04-29 11:26 | 23.89993 | -126.71052 | 38060 ft | 414 kts | 213° |
| 2026-04-29 11:27 | 23.85053 | -126.74235 | 38063 ft | 411 kts | 213° |
| 2026-04-29 11:27 | 23.80117 | -126.77415 | 38061 ft | 413 kts | 214° |
| 2026-04-29 11:28 | 23.75160 | -126.80606 | 38064 ft | 414 kts | 214° |
| 2026-04-29 11:28 | 23.70201 | -126.83795 | 38066 ft | 414 kts | 214° |
| 2026-04-29 11:29 | 23.65238 | -126.86982 | 38068 ft | 414 kts | 214° |
| 2026-04-29 11:29 | 23.60272 | -126.90169 | 38050 ft | 414 kts | 213° |
| 2026-04-29 11:30 | 23.55327 | -126.93339 | 38063 ft | 412 kts | 213° |
| 2026-04-29 11:30 | 23.50393 | -126.96500 | 38062 ft | 411 kts | 213° |
| 2026-04-29 11:31 | 23.45462 | -126.99656 | 38059 ft | 411 kts | 213° |
| 2026-04-29 11:31 | 23.40515 | -127.02820 | 38058 ft | 413 kts | 213° |
| 2026-04-29 11:32 | 23.35560 | -127.05987 | 38054 ft | 413 kts | 213° |
| 2026-04-29 11:32 | 23.30597 | -127.09155 | 38056 ft | 413 kts | 213° |
| 2026-04-29 11:33 | 23.25654 | -127.12306 | 38058 ft | 410 kts | 213° |
| 2026-04-29 11:33 | 23.20735 | -127.15441 | 38056 ft | 409 kts | 213° |
| 2026-04-29 11:34 | 23.15824 | -127.18569 | 38053 ft | 409 kts | 213° |
| 2026-04-29 11:34 | 23.10907 | -127.21697 | 38053 ft | 409 kts | 213° |
| 2026-04-29 11:35 | 23.05994 | -127.24820 | 38054 ft | 410 kts | 213° |
| 2026-04-29 11:35 | 23.01056 | -127.27957 | 38053 ft | 412 kts | 213° |
| 2026-04-29 11:36 | 22.96110 | -127.31096 | 38047 ft | 411 kts | 213° |
| 2026-04-29 11:36 | 22.91178 | -127.34222 | 38050 ft | 410 kts | 213° |
| 2026-04-29 11:37 | 22.86257 | -127.37339 | 38050 ft | 410 kts | 213° |
| 2026-04-29 11:37 | 22.81329 | -127.40458 | 38050 ft | 410 kts | 213° |
| 2026-04-29 11:38 | 22.76405 | -127.43573 | 38050 ft | 410 kts | 213° |
| 2026-04-29 11:38 | 22.71477 | -127.46686 | 38047 ft | 410 kts | 213° |
| 2026-04-29 11:39 | 22.66542 | -127.49802 | 38045 ft | 412 kts | 213° |
| 2026-04-29 11:39 | 22.61582 | -127.52932 | 38045 ft | 413 kts | 213° |
| 2026-04-29 11:40 | 22.56641 | -127.56046 | 38047 ft | 414 kts | 213° |
| 2026-04-29 11:40 | 22.51637 | -127.59197 | 38048 ft | 414 kts | 213° |
| 2026-04-29 11:41 | 22.46659 | -127.62328 | 38042 ft | 414 kts | 213° |
| 2026-04-29 11:41 | 22.41685 | -127.65455 | 38042 ft | 414 kts | 213° |
| 2026-04-29 11:42 | 22.36708 | -127.68582 | 38022 ft | 414 kts | 213° |
| 2026-04-29 11:42 | 22.31776 | -127.71677 | 38038 ft | 411 kts | 213° |
| 2026-04-29 11:43 | 22.26824 | -127.74782 | 38039 ft | 412 kts | 213° |
| 2026-04-29 11:43 | 22.21864 | -127.77890 | 38038 ft | 412 kts | 213° |
| 2026-04-29 11:44 | 22.16900 | -127.80999 | 38038 ft | 413 kts | 213° |
| 2026-04-29 11:44 | 22.11901 | -127.84126 | 38034 ft | 413 kts | 213° |
| 2026-04-29 11:45 | 22.06966 | -127.87210 | 38036 ft | 413 kts | 213° |
| 2026-04-29 11:45 | 22.01998 | -127.90313 | 38031 ft | 413 kts | 212° |
| 2026-04-29 11:46 | 21.97027 | -127.93415 | 38031 ft | 413 kts | 212° |
| 2026-04-29 11:46 | 21.92049 | -127.96519 | 38030 ft | 414 kts | 213° |
| 2026-04-29 11:47 | 21.87053 | -127.99632 | 38033 ft | 415 kts | 213° |
| 2026-04-29 11:47 | 21.82051 | -128.02747 | 38027 ft | 416 kts | 213° |
| 2026-04-29 11:48 | 21.77037 | -128.05854 | 38029 ft | 416 kts | 212° |
| 2026-04-29 11:48 | 21.72021 | -128.08949 | 38017 ft | 416 kts | 213° |
| 2026-04-29 11:49 | 21.66991 | -128.12055 | 38019 ft | 417 kts | 213° |
| 2026-04-29 11:49 | 21.61964 | -128.15157 | 38023 ft | 417 kts | 213° |
| 2026-04-29 11:50 | 21.56930 | -128.18262 | 38022 ft | 417 kts | 213° |
| 2026-04-29 11:50 | 21.52712 | -128.20862 | 38022 ft | 418 kts | 213° |
| 2026-04-29 11:51 | 21.47658 | -128.23975 | 38019 ft | 419 kts | 213° |
| 2026-04-29 11:51 | 21.42632 | -128.27068 | 38006 ft | 419 kts | 213° |
| 2026-04-29 11:52 | 21.37568 | -128.30182 | 38017 ft | 419 kts | 213° |
| 2026-04-29 11:52 | 21.32505 | -128.33293 | 38019 ft | 419 kts | 213° |
| 2026-04-29 11:53 | 21.27438 | -128.36403 | 38021 ft | 419 kts | 213° |
| 2026-04-29 11:53 | 21.22370 | -128.39512 | 38019 ft | 419 kts | 213° |
| 2026-04-29 11:54 | 21.17306 | -128.42616 | 38019 ft | 420 kts | 213° |
| 2026-04-29 11:54 | 21.12238 | -128.45720 | 38007 ft | 420 kts | 213° |
| 2026-04-29 11:55 | 21.07164 | -128.48825 | 38014 ft | 421 kts | 213° |
| 2026-04-29 11:55 | 21.02078 | -128.51935 | 38014 ft | 421 kts | 213° |
| 2026-04-29 11:56 | 20.96997 | -128.55039 | 38011 ft | 421 kts | 213° |
| 2026-04-29 11:56 | 20.91906 | -128.58147 | 38010 ft | 421 kts | 213° |
| 2026-04-29 11:57 | 20.86821 | -128.61248 | 38012 ft | 421 kts | 213° |
| 2026-04-29 11:57 | 20.81731 | -128.64351 | 38011 ft | 421 kts | 213° |
| 2026-04-29 11:58 | 20.76631 | -128.67457 | 38012 ft | 423 kts | 213° |
| 2026-04-29 11:58 | 20.71519 | -128.70568 | 38007 ft | 423 kts | 213° |
| 2026-04-29 11:59 | 20.66405 | -128.73678 | 38007 ft | 423 kts | 213° |
| 2026-04-29 11:59 | 20.61289 | -128.76786 | 38007 ft | 423 kts | 213° |
| 2026-04-29 12:00 | 20.56167 | -128.79894 | 38010 ft | 423 kts | 213° |
| 2026-04-29 12:00 | 20.51049 | -128.82999 | 38009 ft | 423 kts | 213° |
| 2026-04-29 12:01 | 20.45926 | -128.86107 | 38005 ft | 426 kts | 214° |
| 2026-04-29 12:01 | 20.40756 | -128.89240 | 38008 ft | 428 kts | 213° |
| 2026-04-29 12:02 | 20.35574 | -128.92374 | 38004 ft | 429 kts | 214° |
| 2026-04-29 12:02 | 20.30375 | -128.95519 | 38006 ft | 430 kts | 214° |
| 2026-04-29 12:03 | 20.25178 | -128.98660 | 38006 ft | 430 kts | 214° |
| 2026-04-29 12:03 | 20.19975 | -129.01802 | 38001 ft | 430 kts | 214° |
| 2026-04-29 12:04 | 20.14773 | -129.04941 | 38003 ft | 431 kts | 214° |
| 2026-04-29 12:04 | 20.09541 | -129.08097 | 37995 ft | 432 kts | 214° |
| 2026-04-29 12:05 | 20.04309 | -129.11248 | 37992 ft | 432 kts | 214° |
| 2026-04-29 12:05 | 19.99073 | -129.14397 | 37992 ft | 432 kts | 215° |
| 2026-04-29 12:06 | 19.93839 | -129.17546 | 37994 ft | 433 kts | 215° |
| 2026-04-29 12:06 | 19.88601 | -129.20696 | 37987 ft | 433 kts | 215° |
| 2026-04-29 12:07 | 19.83358 | -129.23845 | 37992 ft | 433 kts | 215° |
| 2026-04-29 12:07 | 19.78109 | -129.26995 | 37991 ft | 433 kts | 215° |
| 2026-04-29 12:08 | 19.72861 | -129.30142 | 37992 ft | 433 kts | 215° |
| 2026-04-29 12:08 | 19.67609 | -129.33290 | 37993 ft | 433 kts | 215° |
| 2026-04-29 12:09 | 19.62355 | -129.36432 | 37992 ft | 434 kts | 216° |
| 2026-04-29 12:09 | 19.57095 | -129.39577 | 37993 ft | 434 kts | 216° |
| 2026-04-29 12:10 | 19.51844 | -129.42720 | 37992 ft | 434 kts | 216° |
| 2026-04-29 12:10 | 19.46580 | -129.45867 | 37984 ft | 434 kts | 216° |
| 2026-04-29 12:11 | 19.41323 | -129.49006 | 37987 ft | 434 kts | 216° |
| 2026-04-29 12:11 | 19.36059 | -129.52145 | 37988 ft | 434 kts | 216° |
| 2026-04-29 12:12 | 19.30797 | -129.55282 | 37989 ft | 434 kts | 216° |
| 2026-04-29 12:12 | 19.25530 | -129.58418 | 37949 ft | 434 kts | 216° |
| 2026-04-29 12:13 | 19.20257 | -129.61554 | 37985 ft | 435 kts | 216° |
| 2026-04-29 12:13 | 19.15012 | -129.64674 | 37985 ft | 436 kts | 216° |
| 2026-04-29 12:14 | 19.09731 | -129.67813 | 37985 ft | 436 kts | 216° |
| 2026-04-29 12:14 | 19.04445 | -129.70953 | 37985 ft | 436 kts | 216° |
| 2026-04-29 12:15 | 18.99161 | -129.74088 | 37983 ft | 436 kts | 216° |
| 2026-04-29 12:15 | 18.93874 | -129.77223 | 37958 ft | 436 kts | 217° |
| 2026-04-29 12:16 | 18.88579 | -129.80362 | 37984 ft | 437 kts | 217° |
| 2026-04-29 12:16 | 18.83269 | -129.83504 | 37980 ft | 438 kts | 217° |
| 2026-04-29 12:17 | 18.77949 | -129.86653 | 37979 ft | 438 kts | 217° |
| 2026-04-29 12:17 | 18.72632 | -129.89798 | 37978 ft | 438 kts | 217° |
| 2026-04-29 12:18 | 18.67309 | -129.92943 | 37979 ft | 438 kts | 217° |
| 2026-04-29 12:18 | 18.61987 | -129.96085 | 37967 ft | 439 kts | 217° |
| 2026-04-29 12:19 | 18.56651 | -129.99234 | 37977 ft | 440 kts | 217° |
| 2026-04-29 12:19 | 18.51311 | -130.02381 | 37974 ft | 440 kts | 217° |
| 2026-04-29 12:20 | 18.45964 | -130.05530 | 37974 ft | 440 kts | 217° |
| 2026-04-29 12:20 | 18.40609 | -130.08682 | 37974 ft | 441 kts | 217° |
| 2026-04-29 12:21 | 18.35280 | -130.11817 | 37974 ft | 441 kts | 217° |
| 2026-04-29 12:21 | 18.29924 | -130.14966 | 37973 ft | 442 kts | 217° |
| 2026-04-29 12:22 | 18.24551 | -130.18123 | 37971 ft | 443 kts | 217° |
| 2026-04-29 12:22 | 18.19165 | -130.21284 | 37971 ft | 443 kts | 217° |
| 2026-04-29 12:23 | 18.13779 | -130.24442 | 37968 ft | 443 kts | 217° |
| 2026-04-29 12:23 | 18.08389 | -130.27602 | 37968 ft | 444 kts | 217° |
| 2026-04-29 12:24 | 18.02994 | -130.30762 | 37966 ft | 444 kts | 217° |
| 2026-04-29 12:24 | 17.97586 | -130.33930 | 37969 ft | 446 kts | 217° |
| 2026-04-29 12:25 | 17.92163 | -130.37102 | 37964 ft | 447 kts | 217° |
| 2026-04-29 12:26 | 17.84018 | -130.41860 | 37967 ft | 447 kts | 217° |
| 2026-04-29 12:26 | 17.78585 | -130.45031 | 37967 ft | 447 kts | 217° |
| 2026-04-29 12:27 | 17.73153 | -130.48201 | 37962 ft | 447 kts | 217° |
| 2026-04-29 12:27 | 17.67711 | -130.51375 | 37961 ft | 449 kts | 216° |
| 2026-04-29 12:28 | 17.62248 | -130.54559 | 37963 ft | 449 kts | 216° |
| 2026-04-29 12:28 | 17.56782 | -130.57740 | 37963 ft | 449 kts | 216° |
| 2026-04-29 12:29 | 17.51315 | -130.60920 | 38101 ft | 449 kts | 216° |
| 2026-04-29 12:29 | 17.48592 | -130.62502 | 38321 ft | 447 kts | 216° |
| 2026-04-29 12:29 | 17.45873 | -130.64082 | 38500 ft | 446 kts | 216° |
| 2026-04-29 12:29 | 17.43163 | -130.65656 | 38649 ft | 446 kts | 216° |
| 2026-04-29 12:30 | 17.40451 | -130.67232 | 38741 ft | 445 kts | 216° |
| 2026-04-29 12:30 | 17.35024 | -130.70384 | 38915 ft | 446 kts | 216° |
| 2026-04-29 12:31 | 17.29578 | -130.73547 | 38960 ft | 449 kts | 216° |
| 2026-04-29 12:31 | 17.24105 | -130.76721 | 38960 ft | 450 kts | 216° |
| 2026-04-29 12:32 | 17.18634 | -130.79889 | 38960 ft | 450 kts | 216° |
| 2026-04-29 12:32 | 17.13160 | -130.83058 | 38952 ft | 450 kts | 216° |
| 2026-04-29 12:33 | 17.07687 | -130.86225 | 38948 ft | 450 kts | 216° |
| 2026-04-29 12:33 | 17.03129 | -130.88862 | 38954 ft | 451 kts | 216° |
| 2026-04-29 12:34 | 16.97628 | -130.92041 | 38953 ft | 452 kts | 216° |
| 2026-04-29 12:34 | 16.92123 | -130.95221 | 38955 ft | 452 kts | 216° |
| 2026-04-29 12:35 | 16.86611 | -130.98402 | 38956 ft | 453 kts | 216° |
| 2026-04-29 12:35 | 16.81102 | -131.01579 | 38953 ft | 453 kts | 216° |
| 2026-04-29 12:36 | 16.75586 | -131.04759 | 38945 ft | 454 kts | 215° |
| 2026-04-29 12:36 | 16.70042 | -131.07953 | 38949 ft | 456 kts | 215° |
| 2026-04-29 12:37 | 16.64492 | -131.11148 | 38951 ft | 456 kts | 215° |
| 2026-04-29 12:37 | 16.58939 | -131.14341 | 38950 ft | 456 kts | 215° |
| 2026-04-29 12:38 | 16.53382 | -131.17535 | 38948 ft | 457 kts | 215° |
| 2026-04-29 12:38 | 16.47813 | -131.20735 | 38945 ft | 457 kts | 215° |
| 2026-04-29 12:39 | 16.42246 | -131.23930 | 38948 ft | 457 kts | 215° |
| 2026-04-29 12:39 | 16.36680 | -131.27123 | 38944 ft | 457 kts | 215° |
| 2026-04-29 12:40 | 16.31121 | -131.30311 | 38942 ft | 457 kts | 215° |
| 2026-04-29 12:40 | 16.25549 | -131.33504 | 38945 ft | 457 kts | 215° |
| 2026-04-29 12:41 | 16.19975 | -131.36695 | 38946 ft | 458 kts | 215° |
| 2026-04-29 12:41 | 16.14389 | -131.39893 | 38936 ft | 459 kts | 214° |
| 2026-04-29 12:42 | 16.08778 | -131.43102 | 38938 ft | 461 kts | 214° |
| 2026-04-29 12:42 | 16.03161 | -131.46311 | 38939 ft | 461 kts | 214° |
| 2026-04-29 12:43 | 15.97542 | -131.49519 | 38938 ft | 461 kts | 214° |
| 2026-04-29 12:43 | 15.91958 | -131.52706 | 38939 ft | 461 kts | 214° |
| 2026-04-29 12:44 | 15.86334 | -131.55914 | 38930 ft | 461 kts | 214° |
| 2026-04-29 12:44 | 15.80716 | -131.59116 | 38934 ft | 460 kts | 214° |
| 2026-04-29 12:45 | 15.75063 | -131.62336 | 38942 ft | 460 kts | 214° |
| 2026-04-29 12:45 | 15.69483 | -131.65513 | 38941 ft | 460 kts | 214° |
| 2026-04-29 12:46 | 15.63871 | -131.68705 | 38925 ft | 460 kts | 214° |
| 2026-04-29 12:46 | 15.58260 | -131.71896 | 38938 ft | 460 kts | 214° |
| 2026-04-29 12:47 | 15.52634 | -131.75093 | 38933 ft | 462 kts | 214° |
| 2026-04-29 12:47 | 15.46992 | -131.78298 | 38932 ft | 463 kts | 214° |
| 2026-04-29 12:48 | 15.41339 | -131.81505 | 38934 ft | 463 kts | 214° |
| 2026-04-29 12:48 | 15.35688 | -131.84709 | 38930 ft | 463 kts | 214° |
| 2026-04-29 12:49 | 15.30040 | -131.87911 | 38935 ft | 463 kts | 214° |
| 2026-04-29 12:49 | 15.24382 | -131.91115 | 38929 ft | 464 kts | 214° |
| 2026-04-29 12:50 | 15.18709 | -131.94328 | 38925 ft | 466 kts | 213° |
| 2026-04-29 12:50 | 15.13021 | -131.97546 | 38925 ft | 466 kts | 213° |
| 2026-04-29 12:51 | 15.07337 | -132.00759 | 38928 ft | 465 kts | 213° |
| 2026-04-29 12:51 | 15.01657 | -132.03967 | 38924 ft | 465 kts | 213° |
| 2026-04-29 12:52 | 14.95977 | -132.07175 | 38919 ft | 465 kts | 213° |
| 2026-04-29 12:52 | 14.90295 | -132.10383 | 38924 ft | 466 kts | 213° |
| 2026-04-29 12:53 | 14.84597 | -132.13596 | 38925 ft | 466 kts | 213° |
| 2026-04-29 12:53 | 14.78899 | -132.16808 | 38926 ft | 467 kts | 213° |
| 2026-04-29 12:54 | 14.73200 | -132.20018 | 38922 ft | 467 kts | 213° |
| 2026-04-29 12:54 | 14.67505 | -132.23224 | 38921 ft | 466 kts | 213° |
| 2026-04-29 12:55 | 14.61809 | -132.26429 | 38924 ft | 466 kts | 213° |
| 2026-04-29 12:55 | 14.56112 | -132.29633 | 38923 ft | 466 kts | 213° |
| 2026-04-29 12:56 | 14.50415 | -132.32836 | 38922 ft | 466 kts | 213° |
| 2026-04-29 12:56 | 14.44718 | -132.36035 | 38918 ft | 466 kts | 213° |
| 2026-04-29 12:57 | 14.39018 | -132.39231 | 38923 ft | 466 kts | 213° |
| 2026-04-29 12:57 | 14.33360 | -132.42404 | 38915 ft | 467 kts | 213° |
| 2026-04-29 12:58 | 14.27637 | -132.45612 | 38920 ft | 469 kts | 213° |
| 2026-04-29 12:58 | 14.21904 | -132.48824 | 38917 ft | 469 kts | 213° |
| 2026-04-29 12:59 | 14.16172 | -132.52032 | 38917 ft | 469 kts | 213° |
| 2026-04-29 12:59 | 14.10436 | -132.55241 | 38916 ft | 469 kts | 213° |
| 2026-04-29 13:00 | 14.04700 | -132.58449 | 38909 ft | 469 kts | 213° |
| 2026-04-29 13:00 | 13.98948 | -132.61666 | 38922 ft | 472 kts | 213° |
| 2026-04-29 13:01 | 13.93153 | -132.64902 | 38916 ft | 475 kts | 213° |
| 2026-04-29 13:01 | 13.87350 | -132.68141 | 38914 ft | 475 kts | 213° |
| 2026-04-29 13:02 | 13.81538 | -132.71383 | 38918 ft | 475 kts | 213° |
| 2026-04-29 13:02 | 13.75731 | -132.74620 | 38916 ft | 475 kts | 213° |
| 2026-04-29 13:03 | 13.69913 | -132.77864 | 38907 ft | 477 kts | 212° |
| 2026-04-29 13:03 | 13.64070 | -132.81118 | 38910 ft | 478 kts | 212° |
| 2026-04-29 13:04 | 13.58231 | -132.84368 | 38908 ft | 478 kts | 212° |
| 2026-04-29 13:04 | 13.52385 | -132.87620 | 38913 ft | 478 kts | 212° |
| 2026-04-29 13:05 | 13.46541 | -132.90869 | 38916 ft | 478 kts | 212° |
| 2026-04-29 13:05 | 13.40696 | -132.94117 | 38913 ft | 477 kts | 212° |
| 2026-04-29 13:06 | 13.34854 | -132.97362 | 38909 ft | 477 kts | 212° |
| 2026-04-29 13:06 | 13.29010 | -133.00606 | 38909 ft | 478 kts | 212° |
| 2026-04-29 13:07 | 13.23164 | -133.03849 | 38907 ft | 478 kts | 212° |
| 2026-04-29 13:07 | 13.17311 | -133.07094 | 38908 ft | 478 kts | 212° |
| 2026-04-29 13:08 | 13.11466 | -133.10335 | 38911 ft | 477 kts | 212° |
| 2026-04-29 13:08 | 13.05635 | -133.13564 | 38911 ft | 476 kts | 212° |
| 2026-04-29 13:09 | 12.99807 | -133.16790 | 38905 ft | 476 kts | 212° |
| 2026-04-29 13:09 | 12.93980 | -133.20014 | 38913 ft | 476 kts | 212° |
| 2026-04-29 13:10 | 12.88149 | -133.23238 | 38904 ft | 476 kts | 212° |
| 2026-04-29 13:10 | 12.82325 | -133.26458 | 38908 ft | 476 kts | 211° |
| 2026-04-29 13:11 | 12.76492 | -133.29680 | 38905 ft | 476 kts | 211° |
| 2026-04-29 13:11 | 12.70658 | -133.32901 | 38904 ft | 476 kts | 211° |
| 2026-04-29 13:12 | 12.64821 | -133.36121 | 38904 ft | 476 kts | 211° |
| 2026-04-29 13:12 | 12.58988 | -133.39338 | 38902 ft | 476 kts | 211° |
| 2026-04-29 13:13 | 12.53154 | -133.42555 | 38899 ft | 477 kts | 211° |
| 2026-04-29 13:13 | 12.47284 | -133.45790 | 38900 ft | 480 kts | 211° |
| 2026-04-29 13:14 | 12.41398 | -133.49031 | 38901 ft | 480 kts | 211° |
| 2026-04-29 13:14 | 12.35553 | -133.52247 | 38901 ft | 480 kts | 211° |
| 2026-04-29 13:15 | 12.29668 | -133.55484 | 38901 ft | 480 kts | 211° |
| 2026-04-29 13:15 | 12.23787 | -133.58718 | 38900 ft | 481 kts | 211° |
| 2026-04-29 13:16 | 12.17879 | -133.61966 | 38901 ft | 483 kts | 211° |
| 2026-04-29 13:16 | 12.11957 | -133.65217 | 38898 ft | 483 kts | 211° |
| 2026-04-29 13:17 | 12.06043 | -133.68464 | 38897 ft | 482 kts | 211° |
| 2026-04-29 13:17 | 12.00131 | -133.71707 | 38899 ft | 482 kts | 211° |
| 2026-04-29 13:18 | 11.94220 | -133.74949 | 38895 ft | 483 kts | 211° |
| 2026-04-29 13:18 | 11.88282 | -133.78205 | 38896 ft | 485 kts | 211° |
| 2026-04-29 13:19 | 11.83338 | -133.80914 | 38895 ft | 485 kts | 211° |
| 2026-04-29 13:19 | 11.77392 | -133.84169 | 38895 ft | 485 kts | 212° |
| 2026-04-29 13:20 | 11.71442 | -133.87426 | 38895 ft | 485 kts | 212° |
| 2026-04-29 13:20 | 11.65497 | -133.90678 | 38894 ft | 485 kts | 212° |
| 2026-04-29 13:21 | 11.59550 | -133.93931 | 38892 ft | 486 kts | 212° |
| 2026-04-29 13:21 | 11.53595 | -133.97186 | 38893 ft | 486 kts | 212° |
| 2026-04-29 13:22 | 11.47637 | -134.00440 | 38890 ft | 486 kts | 212° |
| 2026-04-29 13:22 | 11.41683 | -134.03692 | 38896 ft | 486 kts | 212° |
| 2026-04-29 13:23 | 11.35731 | -134.06939 | 38893 ft | 485 kts | 212° |
| 2026-04-29 13:23 | 11.29776 | -134.10189 | 38893 ft | 486 kts | 212° |
| 2026-04-29 13:24 | 11.23810 | -134.13442 | 38893 ft | 486 kts | 212° |
| 2026-04-29 13:24 | 11.17851 | -134.16690 | 38891 ft | 486 kts | 212° |
| 2026-04-29 13:25 | 11.11889 | -134.19937 | 38889 ft | 486 kts | 212° |
| 2026-04-29 13:25 | 11.02982 | -134.24786 | 38890 ft | 486 kts | 212° |
| 2026-04-29 13:26 | 10.97020 | -134.28031 | 38888 ft | 486 kts | 212° |
| 2026-04-29 13:26 | 10.91044 | -134.31281 | 38889 ft | 487 kts | 212° |
| 2026-04-29 13:27 | 10.85073 | -134.34527 | 38893 ft | 487 kts | 212° |
| 2026-04-29 13:27 | 10.79103 | -134.37771 | 38892 ft | 487 kts | 212° |
| 2026-04-29 13:28 | 10.73127 | -134.41017 | 38891 ft | 487 kts | 213° |
| 2026-04-29 13:28 | 10.67145 | -134.44264 | 38892 ft | 487 kts | 213° |
| 2026-04-29 13:29 | 10.61162 | -134.47511 | 38894 ft | 487 kts | 213° |
| 2026-04-29 13:29 | 10.55182 | -134.50754 | 38892 ft | 487 kts | 213° |
| 2026-04-29 13:30 | 10.49197 | -134.53999 | 38890 ft | 487 kts | 213° |
| 2026-04-29 13:30 | 10.43215 | -134.57241 | 38892 ft | 487 kts | 213° |
| 2026-04-29 13:31 | 10.37229 | -134.60483 | 38891 ft | 488 kts | 213° |
| 2026-04-29 13:31 | 10.31244 | -134.63724 | 38890 ft | 487 kts | 213° |
| 2026-04-29 13:32 | 10.25260 | -134.66962 | 38893 ft | 487 kts | 213° |
| 2026-04-29 13:32 | 10.19276 | -134.70200 | 38889 ft | 487 kts | 213° |
| 2026-04-29 13:33 | 10.13290 | -134.73437 | 38890 ft | 488 kts | 213° |
| 2026-04-29 13:33 | 10.07298 | -134.76675 | 38890 ft | 488 kts | 213° |
| 2026-04-29 13:34 | 10.01309 | -134.79911 | 38888 ft | 488 kts | 213° |
| 2026-04-29 13:34 | 9.95314 | -134.83149 | 38889 ft | 488 kts | 213° |
| 2026-04-29 13:35 | 9.89321 | -134.86384 | 38888 ft | 488 kts | 213° |
| 2026-04-29 13:35 | 9.83321 | -134.89621 | 38892 ft | 489 kts | 213° |
| 2026-04-29 13:36 | 9.77316 | -134.92861 | 38892 ft | 489 kts | 213° |
| 2026-04-29 13:36 | 9.71314 | -134.96097 | 38888 ft | 489 kts | 213° |
| 2026-04-29 13:37 | 9.65308 | -134.99333 | 38893 ft | 489 kts | 213° |
| 2026-04-29 13:37 | 9.59301 | -135.02569 | 38891 ft | 489 kts | 213° |
| 2026-04-29 13:38 | 9.53281 | -135.05812 | 38892 ft | 490 kts | 213° |
| 2026-04-29 13:38 | 9.47261 | -135.09052 | 38890 ft | 490 kts | 213° |
| 2026-04-29 13:39 | 9.41237 | -135.12293 | 38891 ft | 490 kts | 213° |
| 2026-04-29 13:39 | 9.35216 | -135.15532 | 38890 ft | 491 kts | 213° |
| 2026-04-29 13:40 | 9.29173 | -135.18782 | 38891 ft | 492 kts | 213° |
| 2026-04-29 13:40 | 9.23126 | -135.22031 | 38893 ft | 492 kts | 213° |
| 2026-04-29 13:41 | 9.17083 | -135.25277 | 38888 ft | 492 kts | 213° |
| 2026-04-29 13:41 | 9.11039 | -135.28522 | 38886 ft | 492 kts | 213° |
| 2026-04-29 13:42 | 9.04987 | -135.31771 | 38885 ft | 493 kts | 213° |
| 2026-04-29 13:42 | 8.98931 | -135.35021 | 38885 ft | 493 kts | 213° |
| 2026-04-29 13:43 | 8.92876 | -135.38269 | 38889 ft | 493 kts | 213° |
| 2026-04-29 13:43 | 8.86823 | -135.41514 | 38888 ft | 492 kts | 213° |
| 2026-04-29 13:44 | 8.80768 | -135.44759 | 38893 ft | 493 kts | 213° |
| 2026-04-29 13:44 | 8.74712 | -135.48005 | 38894 ft | 493 kts | 213° |
| 2026-04-29 13:45 | 8.68657 | -135.51247 | 38888 ft | 493 kts | 213° |
| 2026-04-29 13:45 | 8.62596 | -135.54493 | 38887 ft | 493 kts | 213° |
| 2026-04-29 13:46 | 8.56533 | -135.57738 | 38893 ft | 494 kts | 213° |
| 2026-04-29 13:46 | 8.50463 | -135.60985 | 38887 ft | 493 kts | 213° |
| 2026-04-29 13:47 | 8.44403 | -135.64225 | 38888 ft | 493 kts | 213° |
| 2026-04-29 13:47 | 8.38344 | -135.67465 | 38886 ft | 493 kts | 213° |
| 2026-04-29 13:48 | 8.32283 | -135.70704 | 38887 ft | 493 kts | 213° |
| 2026-04-29 13:48 | 8.26224 | -135.73941 | 38887 ft | 493 kts | 213° |
| 2026-04-29 13:49 | 8.20166 | -135.77177 | 38889 ft | 493 kts | 213° |
| 2026-04-29 13:49 | 8.14110 | -135.80410 | 38889 ft | 492 kts | 212° |
| 2026-04-29 13:50 | 8.08065 | -135.83636 | 38887 ft | 491 kts | 212° |
| 2026-04-29 13:50 | 8.02021 | -135.86860 | 38889 ft | 491 kts | 212° |
| 2026-04-29 13:51 | 7.95978 | -135.90083 | 38888 ft | 491 kts | 212° |
| 2026-04-29 13:51 | 7.89976 | -135.93284 | 38885 ft | 491 kts | 212° |
| 2026-04-29 13:52 | 7.83932 | -135.96505 | 38891 ft | 491 kts | 212° |
| 2026-04-29 13:52 | 7.77894 | -135.99722 | 38892 ft | 491 kts | 212° |
| 2026-04-29 13:53 | 7.71860 | -136.02935 | 38895 ft | 490 kts | 212° |
| 2026-04-29 13:53 | 7.65827 | -136.06147 | 38890 ft | 490 kts | 212° |
| 2026-04-29 13:54 | 7.59785 | -136.09365 | 38891 ft | 492 kts | 212° |
| 2026-04-29 13:54 | 7.53734 | -136.12584 | 38892 ft | 492 kts | 212° |
| 2026-04-29 13:55 | 7.47679 | -136.15805 | 38890 ft | 492 kts | 212° |
| 2026-04-29 13:55 | 7.41622 | -136.19025 | 38893 ft | 492 kts | 212° |
| 2026-04-29 13:56 | 7.35567 | -136.22244 | 38892 ft | 493 kts | 212° |
| 2026-04-29 13:56 | 7.29499 | -136.25469 | 38893 ft | 493 kts | 212° |
| 2026-04-29 13:57 | 7.23424 | -136.28697 | 38891 ft | 494 kts | 212° |
| 2026-04-29 13:57 | 7.18339 | -136.31398 | 38892 ft | 493 kts | 212° |
| 2026-04-29 13:58 | 7.11278 | -136.35149 | 38893 ft | 494 kts | 213° |
| 2026-04-29 13:58 | 7.05189 | -136.38380 | 39060 ft | 494 kts | 213° |
| 2026-04-29 13:59 | 7.02151 | -136.39989 | 39235 ft | 492 kts | 213° |
| 2026-04-29 13:59 | 6.99127 | -136.41592 | 39430 ft | 490 kts | 213° |
| 2026-04-29 13:59 | 6.96114 | -136.43189 | 39575 ft | 489 kts | 213° |
| 2026-04-29 13:59 | 6.93108 | -136.44783 | 39739 ft | 488 kts | 213° |
| 2026-04-29 14:00 | 6.90110 | -136.46373 | 39866 ft | 487 kts | 213° |
| 2026-04-29 14:00 | 6.87107 | -136.47966 | 39898 ft | 488 kts | 213° |
| 2026-04-29 14:00 | 6.81089 | -136.51158 | 39897 ft | 489 kts | 213° |
| 2026-04-29 14:01 | 6.75079 | -136.54343 | 39895 ft | 488 kts | 213° |
| 2026-04-29 14:01 | 6.69065 | -136.57529 | 39894 ft | 488 kts | 213° |
| 2026-04-29 14:02 | 6.63099 | -136.60688 | 39890 ft | 488 kts | 213° |
| 2026-04-29 14:02 | 6.58110 | -136.63330 | 39892 ft | 487 kts | 213° |
| 2026-04-29 14:03 | 6.52108 | -136.66508 | 39895 ft | 487 kts | 213° |
| 2026-04-29 14:03 | 6.46068 | -136.69705 | 39894 ft | 487 kts | 213° |
| 2026-04-29 14:04 | 6.40067 | -136.72880 | 39892 ft | 487 kts | 213° |
| 2026-04-29 14:04 | 6.34062 | -136.76056 | 39891 ft | 488 kts | 213° |
| 2026-04-29 14:05 | 6.28056 | -136.79232 | 39889 ft | 488 kts | 213° |
| 2026-04-29 14:05 | 6.22055 | -136.82405 | 39889 ft | 488 kts | 213° |
| 2026-04-29 14:06 | 6.16046 | -136.85581 | 39889 ft | 488 kts | 213° |
| 2026-04-29 14:06 | 6.10034 | -136.88757 | 39883 ft | 488 kts | 213° |
| 2026-04-29 14:07 | 6.04024 | -136.91933 | 39889 ft | 488 kts | 213° |
| 2026-04-29 14:07 | 5.98014 | -136.95107 | 39886 ft | 488 kts | 213° |
| 2026-04-29 14:08 | 5.92008 | -136.98278 | 39887 ft | 488 kts | 213° |
| 2026-04-29 14:08 | 5.86043 | -137.01426 | 39886 ft | 487 kts | 213° |
| 2026-04-29 14:09 | 5.80042 | -137.04593 | 39886 ft | 487 kts | 213° |
| 2026-04-29 14:09 | 5.74041 | -137.07760 | 39886 ft | 487 kts | 213° |
| 2026-04-29 14:10 | 5.68039 | -137.10926 | 39889 ft | 487 kts | 213° |
| 2026-04-29 14:10 | 5.61998 | -137.14112 | 39889 ft | 487 kts | 213° |
| 2026-04-29 14:11 | 5.55995 | -137.17276 | 39886 ft | 487 kts | 213° |
| 2026-04-29 14:11 | 5.49998 | -137.20437 | 39887 ft | 487 kts | 213° |
| 2026-04-29 14:12 | 5.44043 | -137.23575 | 39888 ft | 486 kts | 213° |
| 2026-04-29 14:12 | 5.38053 | -137.26731 | 39886 ft | 486 kts | 213° |
| 2026-04-29 14:13 | 5.32065 | -137.29886 | 39888 ft | 486 kts | 213° |
| 2026-04-29 14:13 | 5.26036 | -137.33061 | 39887 ft | 486 kts | 213° |
| 2026-04-29 14:14 | 5.20053 | -137.36211 | 39889 ft | 486 kts | 213° |
| 2026-04-29 14:14 | 5.14112 | -137.39339 | 39889 ft | 485 kts | 213° |
| 2026-04-29 14:15 | 5.08138 | -137.42483 | 39890 ft | 485 kts | 213° |
| 2026-04-29 14:15 | 5.02163 | -137.45627 | 39887 ft | 485 kts | 213° |
| 2026-04-29 14:16 | 4.96196 | -137.48766 | 39889 ft | 484 kts | 213° |
| 2026-04-29 14:16 | 4.90226 | -137.51906 | 39889 ft | 484 kts | 213° |
| 2026-04-29 14:17 | 4.84259 | -137.55044 | 39886 ft | 484 kts | 213° |
| 2026-04-29 14:17 | 4.78292 | -137.58181 | 39886 ft | 484 kts | 213° |
| 2026-04-29 14:18 | 4.72330 | -137.61315 | 39886 ft | 483 kts | 213° |
| 2026-04-29 14:18 | 4.66377 | -137.64443 | 39887 ft | 483 kts | 213° |
| 2026-04-29 14:19 | 4.60425 | -137.67571 | 39889 ft | 483 kts | 213° |
| 2026-04-29 14:19 | 4.54473 | -137.70698 | 39889 ft | 483 kts | 213° |
| 2026-04-29 14:20 | 4.48527 | -137.73822 | 39888 ft | 483 kts | 212° |
| 2026-04-29 14:20 | 4.42583 | -137.76943 | 39889 ft | 482 kts | 212° |
| 2026-04-29 14:21 | 4.36643 | -137.80062 | 39890 ft | 482 kts | 212° |
| 2026-04-29 14:21 | 4.30710 | -137.83176 | 39889 ft | 481 kts | 212° |
| 2026-04-29 14:22 | 4.24777 | -137.86290 | 39887 ft | 481 kts | 212° |
| 2026-04-29 14:22 | 4.18854 | -137.89398 | 39886 ft | 480 kts | 212° |
| 2026-04-29 14:23 | 4.12935 | -137.92504 | 39889 ft | 480 kts | 212° |
| 2026-04-29 14:23 | 4.07016 | -137.95609 | 39889 ft | 480 kts | 212° |
| 2026-04-29 14:24 | 4.01095 | -137.98715 | 39889 ft | 480 kts | 212° |
| 2026-04-29 14:24 | 3.95179 | -138.01818 | 39890 ft | 480 kts | 212° |
| 2026-04-29 14:25 | 3.89275 | -138.04913 | 39889 ft | 478 kts | 212° |
| 2026-04-29 14:25 | 3.83381 | -138.08003 | 39889 ft | 478 kts | 212° |
| 2026-04-29 14:26 | 3.77489 | -138.11092 | 39889 ft | 478 kts | 212° |
| 2026-04-29 14:26 | 3.71598 | -138.14180 | 39889 ft | 478 kts | 212° |
| 2026-04-29 14:27 | 3.65709 | -138.17266 | 39892 ft | 477 kts | 212° |
| 2026-04-29 14:28 | 3.56883 | -138.21890 | 39890 ft | 477 kts | 212° |
| 2026-04-29 14:28 | 3.51007 | -138.24968 | 39889 ft | 477 kts | 212° |
| 2026-04-29 14:29 | 3.45113 | -138.28008 | 39889 ft | 477 kts | 211° |
| 2026-04-29 14:29 | 3.39166 | -138.30971 | 39889 ft | 477 kts | 211° |
| 2026-04-29 14:30 | 3.33215 | -138.33933 | 39890 ft | 478 kts | 211° |
| 2026-04-29 14:30 | 3.27310 | -138.36889 | 39892 ft | 478 kts | 211° |
| 2026-04-29 14:31 | 3.21368 | -138.39872 | 39889 ft | 478 kts | 211° |
| 2026-04-29 14:31 | 3.15430 | -138.42854 | 39889 ft | 478 kts | 211° |
| 2026-04-29 14:32 | 3.09490 | -138.45836 | 39891 ft | 478 kts | 211° |
| 2026-04-29 14:32 | 3.03548 | -138.48819 | 39892 ft | 478 kts | 211° |
| 2026-04-29 14:33 | 2.97611 | -138.51798 | 39891 ft | 478 kts | 211° |
| 2026-04-29 14:33 | 2.91674 | -138.54777 | 39889 ft | 478 kts | 211° |
| 2026-04-29 14:34 | 2.85731 | -138.57758 | 39887 ft | 477 kts | 211° |
| 2026-04-29 14:34 | 2.79802 | -138.60732 | 39889 ft | 477 kts | 211° |
| 2026-04-29 14:35 | 2.73873 | -138.63705 | 39893 ft | 476 kts | 211° |
| 2026-04-29 14:35 | 2.67950 | -138.66676 | 39892 ft | 476 kts | 211° |
| 2026-04-29 14:36 | 2.62027 | -138.69646 | 39892 ft | 476 kts | 211° |
| 2026-04-29 14:36 | 2.56103 | -138.72617 | 39891 ft | 476 kts | 212° |
| 2026-04-29 14:37 | 2.50183 | -138.75584 | 39892 ft | 476 kts | 212° |
| 2026-04-29 14:37 | 2.44262 | -138.78553 | 39892 ft | 476 kts | 212° |
| 2026-04-29 14:38 | 2.38343 | -138.81520 | 39893 ft | 476 kts | 212° |
| 2026-04-29 14:38 | 2.32423 | -138.84487 | 39892 ft | 476 kts | 212° |
| 2026-04-29 14:39 | 2.26504 | -138.87453 | 39893 ft | 476 kts | 212° |
| 2026-04-29 14:39 | 2.20583 | -138.90420 | 39892 ft | 476 kts | 212° |
| 2026-04-29 14:40 | 2.14661 | -138.93387 | 39891 ft | 476 kts | 212° |
| 2026-04-29 14:40 | 2.08740 | -138.96354 | 39892 ft | 476 kts | 212° |
| 2026-04-29 14:41 | 2.02822 | -138.99318 | 39893 ft | 476 kts | 212° |
| 2026-04-29 14:41 | 1.96902 | -139.02284 | 39893 ft | 476 kts | 212° |
| 2026-04-29 14:42 | 1.90976 | -139.05252 | 39895 ft | 476 kts | 212° |
| 2026-04-29 14:42 | 1.85052 | -139.08220 | 39899 ft | 476 kts | 212° |
| 2026-04-29 14:43 | 1.79122 | -139.11189 | 39895 ft | 477 kts | 212° |
| 2026-04-29 14:43 | 1.73195 | -139.14158 | 39895 ft | 477 kts | 212° |
| 2026-04-29 14:44 | 1.67259 | -139.17130 | 39895 ft | 478 kts | 212° |
| 2026-04-29 14:44 | 1.61310 | -139.20109 | 39894 ft | 478 kts | 212° |
| 2026-04-29 14:45 | 1.55363 | -139.23086 | 39897 ft | 478 kts | 212° |
| 2026-04-29 14:45 | 1.50420 | -139.25561 | 39897 ft | 478 kts | 212° |
| 2026-04-29 14:46 | 1.44468 | -139.28540 | 39898 ft | 478 kts | 212° |
| 2026-04-29 14:46 | 1.38517 | -139.31519 | 39899 ft | 479 kts | 212° |
| 2026-04-29 14:47 | 1.32559 | -139.34501 | 39895 ft | 479 kts | 212° |
| 2026-04-29 14:47 | 1.26605 | -139.37482 | 39894 ft | 479 kts | 212° |
| 2026-04-29 14:48 | 1.20648 | -139.40463 | 39895 ft | 479 kts | 212° |
| 2026-04-29 14:48 | 1.14691 | -139.43444 | 39895 ft | 479 kts | 212° |
| 2026-04-29 14:49 | 1.08733 | -139.46426 | 39895 ft | 479 kts | 212° |
| 2026-04-29 14:49 | 1.02772 | -139.49409 | 39896 ft | 479 kts | 212° |
| 2026-04-29 14:50 | 0.96815 | -139.52390 | 39895 ft | 479 kts | 212° |
| 2026-04-29 14:50 | 0.90854 | -139.55373 | 39895 ft | 479 kts | 212° |
| 2026-04-29 14:51 | 0.84899 | -139.58353 | 39892 ft | 479 kts | 212° |
| 2026-04-29 14:51 | 0.78937 | -139.61336 | 39892 ft | 479 kts | 212° |
| 2026-04-29 14:52 | 0.72979 | -139.64317 | 39894 ft | 479 kts | 212° |
| 2026-04-29 14:52 | 0.67026 | -139.67296 | 39895 ft | 479 kts | 212° |
| 2026-04-29 14:53 | 0.61066 | -139.70278 | 39896 ft | 479 kts | 212° |
| 2026-04-29 14:53 | 0.55110 | -139.73257 | 39892 ft | 479 kts | 212° |
| 2026-04-29 14:54 | 0.49159 | -139.76235 | 39893 ft | 478 kts | 212° |
| 2026-04-29 14:54 | 0.43213 | -139.79209 | 39889 ft | 478 kts | 212° |
| 2026-04-29 14:55 | 0.37269 | -139.82183 | 39886 ft | 478 kts | 212° |
| 2026-04-29 14:55 | 0.31324 | -139.85157 | 39889 ft | 478 kts | 212° |
| 2026-04-29 14:56 | 0.25381 | -139.88130 | 39891 ft | 478 kts | 212° |
| 2026-04-29 14:56 | 0.19439 | -139.91103 | 39890 ft | 478 kts | 212° |
| 2026-04-29 14:57 | 0.13492 | -139.94078 | 39891 ft | 478 kts | 212° |
| 2026-04-29 14:57 | 0.07551 | -139.97050 | 39895 ft | 478 kts | 212° |
| 2026-04-29 14:58 | 0.01613 | -140.00021 | 39887 ft | 477 kts | 212° |
| 2026-04-29 14:58 | -0.04326 | -140.02996 | 39889 ft | 478 kts | 212° |
| 2026-04-29 14:59 | -0.10239 | -140.05949 | 39889 ft | 478 kts | 212° |
| 2026-04-29 14:59 | -0.16186 | -140.08916 | 39889 ft | 478 kts | 212° |
| 2026-04-29 15:00 | -0.22135 | -140.11888 | 39890 ft | 478 kts | 212° |
| 2026-04-29 15:00 | -0.28086 | -140.14861 | 39892 ft | 478 kts | 212° |
| 2026-04-29 15:01 | -0.34036 | -140.17835 | 39891 ft | 479 kts | 212° |
| 2026-04-29 15:01 | -0.39997 | -140.20814 | 39890 ft | 479 kts | 212° |
| 2026-04-29 15:02 | -0.45952 | -140.23789 | 39889 ft | 478 kts | 212° |
| 2026-04-29 15:02 | -0.51907 | -140.26764 | 39886 ft | 478 kts | 212° |
| 2026-04-29 15:03 | -0.57856 | -140.29738 | 39887 ft | 478 kts | 212° |
| 2026-04-29 15:03 | -0.63814 | -140.32715 | 39889 ft | 479 kts | 212° |
| 2026-04-29 15:04 | -0.69768 | -140.35691 | 39884 ft | 479 kts | 212° |
| 2026-04-29 15:04 | -0.75730 | -140.38671 | 39887 ft | 479 kts | 212° |
| 2026-04-29 15:05 | -0.81694 | -140.41651 | 39886 ft | 479 kts | 212° |
| 2026-04-29 15:05 | -0.87647 | -140.44626 | 39886 ft | 478 kts | 212° |
| 2026-04-29 15:06 | -0.93596 | -140.47599 | 39885 ft | 478 kts | 212° |
| 2026-04-29 15:06 | -0.99544 | -140.50573 | 39883 ft | 478 kts | 212° |
| 2026-04-29 15:07 | -1.05490 | -140.53545 | 39885 ft | 478 kts | 212° |
| 2026-04-29 15:07 | -1.11437 | -140.56518 | 39886 ft | 478 kts | 212° |
| 2026-04-29 15:08 | -1.17387 | -140.59492 | 39886 ft | 478 kts | 212° |
| 2026-04-29 15:08 | -1.23333 | -140.62465 | 39886 ft | 478 kts | 212° |
| 2026-04-29 15:09 | -1.29274 | -140.65435 | 39889 ft | 477 kts | 212° |
| 2026-04-29 15:09 | -1.35208 | -140.68401 | 39886 ft | 477 kts | 212° |
| 2026-04-29 15:10 | -1.41138 | -140.71366 | 39889 ft | 476 kts | 212° |
| 2026-04-29 15:10 | -1.47069 | -140.74332 | 39886 ft | 476 kts | 212° |
| 2026-04-29 15:11 | -1.52998 | -140.77297 | 39889 ft | 477 kts | 212° |
| 2026-04-29 15:11 | -1.58926 | -140.80262 | 39886 ft | 477 kts | 212° |
| 2026-04-29 15:12 | -1.64858 | -140.83229 | 39885 ft | 477 kts | 212° |
| 2026-04-29 15:12 | -1.70789 | -140.86195 | 39886 ft | 477 kts | 212° |
| 2026-04-29 15:13 | -1.76720 | -140.89161 | 39889 ft | 476 kts | 212° |
| 2026-04-29 15:13 | -1.82647 | -140.92127 | 39890 ft | 477 kts | 212° |
| 2026-04-29 15:14 | -1.88582 | -140.95096 | 39888 ft | 477 kts | 212° |
| 2026-04-29 15:14 | -1.94514 | -140.98063 | 39889 ft | 477 kts | 212° |
| 2026-04-29 15:15 | -2.00447 | -141.01032 | 39891 ft | 477 kts | 212° |
| 2026-04-29 15:15 | -2.06383 | -141.04002 | 39892 ft | 477 kts | 212° |
| 2026-04-29 15:16 | -2.12320 | -141.06974 | 39892 ft | 478 kts | 212° |
| 2026-04-29 15:16 | -2.18264 | -141.09948 | 39892 ft | 478 kts | 212° |
| 2026-04-29 15:17 | -2.24214 | -141.12926 | 39889 ft | 478 kts | 212° |
| 2026-04-29 15:17 | -2.30124 | -141.15884 | 39889 ft | 478 kts | 212° |
| 2026-04-29 15:18 | -2.36069 | -141.18860 | 39892 ft | 478 kts | 212° |
| 2026-04-29 15:18 | -2.42015 | -141.21838 | 39892 ft | 479 kts | 211° |
| 2026-04-29 15:19 | -2.47977 | -141.24823 | 39891 ft | 479 kts | 211° |
| 2026-04-29 15:19 | -2.53938 | -141.27808 | 39895 ft | 479 kts | 211° |
| 2026-04-29 15:20 | -2.59900 | -141.30793 | 39893 ft | 479 kts | 211° |
| 2026-04-29 15:20 | -2.65866 | -141.33781 | 39902 ft | 479 kts | 211° |
| 2026-04-29 15:21 | -2.71824 | -141.36766 | 39896 ft | 479 kts | 211° |
| 2026-04-29 15:21 | -2.77782 | -141.39750 | 39895 ft | 479 kts | 211° |
| 2026-04-29 15:22 | -2.83737 | -141.42734 | 39897 ft | 479 kts | 211° |
| 2026-04-29 15:22 | -2.89691 | -141.45718 | 39900 ft | 479 kts | 211° |
| 2026-04-29 15:23 | -2.95650 | -141.48704 | 39900 ft | 479 kts | 211° |
| 2026-04-29 15:23 | -3.01606 | -141.51690 | 39900 ft | 480 kts | 211° |
| 2026-04-29 15:24 | -3.07581 | -141.54685 | 39899 ft | 481 kts | 211° |
| 2026-04-29 15:24 | -3.13558 | -141.57681 | 39903 ft | 481 kts | 211° |
| 2026-04-29 15:25 | -3.19537 | -141.60678 | 39903 ft | 480 kts | 211° |
| 2026-04-29 15:25 | -3.25511 | -141.63674 | 39903 ft | 480 kts | 211° |
| 2026-04-29 15:26 | -3.31485 | -141.66670 | 39898 ft | 481 kts | 211° |
| 2026-04-29 15:26 | -3.37469 | -141.69672 | 39906 ft | 481 kts | 211° |
| 2026-04-29 15:27 | -3.43456 | -141.72675 | 39901 ft | 481 kts | 211° |
| 2026-04-29 15:27 | -3.49447 | -141.75681 | 39905 ft | 481 kts | 211° |
| 2026-04-29 15:28 | -3.55433 | -141.78685 | 39906 ft | 481 kts | 211° |
| 2026-04-29 15:28 | -3.61424 | -141.81692 | 39901 ft | 481 kts | 211° |
| 2026-04-29 15:29 | -3.66438 | -141.84209 | 39908 ft | 482 kts | 211° |
| 2026-04-29 15:30 | -3.78419 | -141.90224 | 39907 ft | 482 kts | 211° |
| 2026-04-29 15:30 | -3.84412 | -141.93233 | 39899 ft | 482 kts | 211° |
| 2026-04-29 15:31 | -3.90403 | -141.96242 | 39899 ft | 482 kts | 211° |
| 2026-04-29 15:31 | -3.96394 | -141.99252 | 39904 ft | 482 kts | 210° |
| 2026-04-29 15:32 | -4.02389 | -142.02264 | 39906 ft | 482 kts | 210° |
| 2026-04-29 15:32 | -4.08378 | -142.05273 | 39907 ft | 482 kts | 210° |
| 2026-04-29 15:33 | -4.14345 | -142.08272 | 39903 ft | 481 kts | 210° |
| 2026-04-29 15:33 | -4.20315 | -142.11272 | 39902 ft | 481 kts | 210° |
| 2026-04-29 15:34 | -4.26330 | -142.14298 | 39911 ft | 480 kts | 210° |
| 2026-04-29 15:34 | -4.32288 | -142.17293 | 39908 ft | 479 kts | 210° |
| 2026-04-29 15:35 | -4.38197 | -142.20265 | 39908 ft | 479 kts | 210° |
| 2026-04-29 15:35 | -4.44152 | -142.23261 | 39906 ft | 479 kts | 210° |
| 2026-04-29 15:36 | -4.50147 | -142.26277 | 39911 ft | 479 kts | 210° |
| 2026-04-29 15:36 | -4.56113 | -142.29281 | 39956 ft | 483 kts | 209° |
| 2026-04-29 15:37 | -4.62083 | -142.32286 | 40195 ft | 482 kts | 209° |
| 2026-04-29 15:37 | -4.65078 | -142.33792 | 40358 ft | 481 kts | 209° |
| 2026-04-29 15:37 | -4.68066 | -142.35296 | 40506 ft | 480 kts | 209° |
| 2026-04-29 15:37 | -4.71048 | -142.36797 | 40648 ft | 479 kts | 209° |
| 2026-04-29 15:38 | -4.74028 | -142.38297 | 40778 ft | 479 kts | 209° |
| 2026-04-29 15:38 | -4.79978 | -142.41294 | 40912 ft | 478 kts | 209° |
| 2026-04-29 15:39 | -4.85927 | -142.44291 | 40907 ft | 479 kts | 209° |
| 2026-04-29 15:39 | -4.91906 | -142.47304 | 40908 ft | 482 kts | 209° |
| 2026-04-29 15:40 | -4.97896 | -142.50323 | 40912 ft | 482 kts | 209° |
| 2026-04-29 15:40 | -5.03883 | -142.53344 | 40913 ft | 482 kts | 209° |
| 2026-04-29 15:41 | -5.09775 | -142.56317 | 40912 ft | 481 kts | 209° |
| 2026-04-29 15:41 | -5.15757 | -142.59336 | 40909 ft | 481 kts | 209° |
| 2026-04-29 15:42 | -5.21744 | -142.62360 | 40912 ft | 483 kts | 209° |
| 2026-04-29 15:42 | -5.27743 | -142.65390 | 40910 ft | 483 kts | 209° |
| 2026-04-29 15:43 | -5.33743 | -142.68422 | 40911 ft | 483 kts | 209° |
| 2026-04-29 15:43 | -5.39743 | -142.71454 | 40913 ft | 483 kts | 209° |
| 2026-04-29 15:44 | -5.45742 | -142.74486 | 40918 ft | 483 kts | 209° |
| 2026-04-29 15:44 | -5.51750 | -142.77524 | 40907 ft | 484 kts | 210° |
| 2026-04-29 15:45 | -5.57766 | -142.80566 | 40908 ft | 484 kts | 210° |
| 2026-04-29 15:45 | -5.63779 | -142.83608 | 40906 ft | 484 kts | 210° |
| 2026-04-29 15:46 | -5.69788 | -142.86648 | 40922 ft | 484 kts | 210° |
| 2026-04-29 15:46 | -5.75796 | -142.89688 | 40904 ft | 484 kts | 210° |
| 2026-04-29 15:47 | -5.81803 | -142.92729 | 40905 ft | 484 kts | 210° |
| 2026-04-29 15:47 | -5.87815 | -142.95773 | 40922 ft | 484 kts | 210° |
| 2026-04-29 15:48 | -5.93824 | -142.98816 | 40924 ft | 484 kts | 210° |
| 2026-04-29 15:48 | -5.99835 | -143.01861 | 40911 ft | 483 kts | 210° |
| 2026-04-29 15:49 | -6.05825 | -143.04895 | 40930 ft | 482 kts | 210° |
| 2026-04-29 15:49 | -6.11811 | -143.07929 | 40917 ft | 482 kts | 210° |
| 2026-04-29 15:50 | -6.17804 | -143.10968 | 40919 ft | 483 kts | 210° |
| 2026-04-29 15:50 | -6.23803 | -143.14009 | 40914 ft | 483 kts | 210° |
| 2026-04-29 15:51 | -6.29798 | -143.17050 | 40918 ft | 483 kts | 210° |
| 2026-04-29 15:51 | -6.35800 | -143.20095 | 40917 ft | 483 kts | 210° |
| 2026-04-29 15:52 | -6.41794 | -143.23136 | 40924 ft | 483 kts | 210° |
| 2026-04-29 15:52 | -6.47808 | -143.26190 | 40917 ft | 485 kts | 210° |
| 2026-04-29 15:53 | -6.53822 | -143.29243 | 40921 ft | 484 kts | 210° |
| 2026-04-29 15:53 | -6.59833 | -143.32295 | 40916 ft | 484 kts | 210° |
| 2026-04-29 15:54 | -6.65840 | -143.35347 | 40920 ft | 484 kts | 210° |
| 2026-04-29 15:54 | -6.71851 | -143.38401 | 40927 ft | 484 kts | 210° |
| 2026-04-29 15:55 | -6.77857 | -143.41454 | 40920 ft | 484 kts | 210° |
| 2026-04-29 15:55 | -6.83869 | -143.44511 | 40919 ft | 484 kts | 210° |
| 2026-04-29 15:56 | -6.89873 | -143.47564 | 40921 ft | 484 kts | 210° |
| 2026-04-29 15:56 | -6.95885 | -143.50622 | 40918 ft | 484 kts | 210° |
| 2026-04-29 15:57 | -7.01892 | -143.53679 | 40920 ft | 484 kts | 210° |
| 2026-04-29 15:57 | -7.07899 | -143.56737 | 40920 ft | 483 kts | 210° |
| 2026-04-29 15:58 | -7.13898 | -143.59792 | 40922 ft | 483 kts | 210° |
| 2026-04-29 15:58 | -7.19901 | -143.62849 | 40921 ft | 483 kts | 210° |
| 2026-04-29 15:59 | -7.25903 | -143.65907 | 40925 ft | 483 kts | 210° |
| 2026-04-29 15:59 | -7.31903 | -143.68965 | 40925 ft | 483 kts | 210° |
| 2026-04-29 16:00 | -7.37905 | -143.72024 | 40927 ft | 484 kts | 210° |
| 2026-04-29 16:00 | -7.43913 | -143.75088 | 40923 ft | 484 kts | 210° |
| 2026-04-29 16:01 | -7.49920 | -143.78152 | 40926 ft | 484 kts | 210° |
| 2026-04-29 16:01 | -7.55928 | -143.81217 | 40925 ft | 484 kts | 210° |
| 2026-04-29 16:02 | -7.61930 | -143.84281 | 40928 ft | 484 kts | 210° |
| 2026-04-29 16:02 | -7.67930 | -143.87344 | 40936 ft | 484 kts | 210° |
| 2026-04-29 16:03 | -7.73936 | -143.90412 | 40924 ft | 484 kts | 210° |
| 2026-04-29 16:03 | -7.79943 | -143.93481 | 40925 ft | 484 kts | 210° |
| 2026-04-29 16:04 | -7.85953 | -143.96553 | 40927 ft | 484 kts | 210° |
| 2026-04-29 16:04 | -7.91961 | -143.99624 | 40934 ft | 484 kts | 210° |
| 2026-04-29 16:05 | -7.97959 | -144.02691 | 40924 ft | 483 kts | 210° |
| 2026-04-29 16:05 | -8.03944 | -144.05753 | 40922 ft | 482 kts | 209° |
| 2026-04-29 16:06 | -8.09926 | -144.08814 | 40929 ft | 482 kts | 209° |
| 2026-04-29 16:06 | -8.15904 | -144.11875 | 40927 ft | 482 kts | 209° |
| 2026-04-29 16:07 | -8.21880 | -144.14935 | 40927 ft | 482 kts | 209° |
| 2026-04-29 16:07 | -8.27860 | -144.17998 | 40928 ft | 482 kts | 209° |
| 2026-04-29 16:08 | -8.33839 | -144.21062 | 40927 ft | 482 kts | 209° |
| 2026-04-29 16:08 | -8.39810 | -144.24123 | 40928 ft | 481 kts | 209° |
| 2026-04-29 16:09 | -8.45776 | -144.27182 | 40933 ft | 480 kts | 209° |
| 2026-04-29 16:09 | -8.51679 | -144.30210 | 40930 ft | 479 kts | 209° |
| 2026-04-29 16:10 | -8.57624 | -144.33261 | 40926 ft | 479 kts | 209° |
| 2026-04-29 16:10 | -8.63562 | -144.36309 | 40934 ft | 479 kts | 209° |
| 2026-04-29 16:11 | -8.69502 | -144.39360 | 40928 ft | 479 kts | 209° |
| 2026-04-29 16:11 | -8.74484 | -144.41919 | 40933 ft | 479 kts | 209° |
| 2026-04-29 16:12 | -8.80421 | -144.44969 | 40933 ft | 479 kts | 209° |
| 2026-04-29 16:12 | -8.86363 | -144.48024 | 40926 ft | 479 kts | 209° |
| 2026-04-29 16:13 | -8.92263 | -144.51058 | 40932 ft | 478 kts | 209° |
| 2026-04-29 16:13 | -8.98190 | -144.54106 | 40930 ft | 477 kts | 209° |
| 2026-04-29 16:14 | -9.04110 | -144.57153 | 40934 ft | 477 kts | 209° |
| 2026-04-29 16:14 | -9.10028 | -144.60199 | 40927 ft | 477 kts | 209° |
| 2026-04-29 16:15 | -9.15947 | -144.63247 | 40932 ft | 477 kts | 209° |
| 2026-04-29 16:15 | -9.21862 | -144.66295 | 40932 ft | 477 kts | 209° |
| 2026-04-29 16:16 | -9.27780 | -144.69345 | 40942 ft | 477 kts | 209° |
| 2026-04-29 16:16 | -9.33700 | -144.72397 | 40936 ft | 477 kts | 209° |
| 2026-04-29 16:17 | -9.39615 | -144.75448 | 40936 ft | 477 kts | 208° |
| 2026-04-29 16:17 | -9.45525 | -144.78496 | 40938 ft | 476 kts | 208° |
| 2026-04-29 16:18 | -9.51414 | -144.81536 | 40939 ft | 475 kts | 208° |
| 2026-04-29 16:18 | -9.57302 | -144.84577 | 40939 ft | 475 kts | 208° |
| 2026-04-29 16:19 | -9.63187 | -144.87617 | 40943 ft | 475 kts | 208° |
| 2026-04-29 16:19 | -9.69072 | -144.90658 | 40941 ft | 475 kts | 208° |
| 2026-04-29 16:20 | -9.74960 | -144.93702 | 40938 ft | 475 kts | 208° |
| 2026-04-29 16:20 | -9.80847 | -144.96747 | 40941 ft | 475 kts | 208° |
| 2026-04-29 16:21 | -9.86732 | -144.99791 | 40942 ft | 475 kts | 208° |
| 2026-04-29 16:21 | -9.92611 | -145.02834 | 40949 ft | 473 kts | 208° |
| 2026-04-29 16:22 | -9.98458 | -145.05862 | 40941 ft | 472 kts | 208° |
| 2026-04-29 16:22 | -10.04300 | -145.08888 | 40941 ft | 471 kts | 208° |
| 2026-04-29 16:23 | -10.10150 | -145.11905 | 40946 ft | 471 kts | 208° |
| 2026-04-29 16:23 | -10.15993 | -145.14920 | 40942 ft | 471 kts | 208° |
| 2026-04-29 16:24 | -10.21841 | -145.17940 | 40944 ft | 471 kts | 208° |
| 2026-04-29 16:24 | -10.27684 | -145.20961 | 40945 ft | 471 kts | 208° |
| 2026-04-29 16:25 | -10.33523 | -145.23981 | 40950 ft | 471 kts | 208° |
| 2026-04-29 16:25 | -10.39361 | -145.27002 | 40944 ft | 470 kts | 207° |
| 2026-04-29 16:26 | -10.45172 | -145.30009 | 40949 ft | 468 kts | 207° |
| 2026-04-29 16:26 | -10.50971 | -145.33012 | 40943 ft | 467 kts | 207° |
| 2026-04-29 16:27 | -10.56763 | -145.36013 | 40953 ft | 467 kts | 207° |
| 2026-04-29 16:27 | -10.62554 | -145.39015 | 40952 ft | 467 kts | 207° |
| 2026-04-29 16:28 | -10.68348 | -145.42019 | 40944 ft | 467 kts | 207° |
| 2026-04-29 16:28 | -10.74139 | -145.45023 | 40955 ft | 467 kts | 207° |
| 2026-04-29 16:29 | -10.79930 | -145.48028 | 40957 ft | 467 kts | 207° |
| 2026-04-29 16:29 | -10.85679 | -145.51012 | 40957 ft | 467 kts | 207° |
| 2026-04-29 16:30 | -10.91463 | -145.54016 | 40952 ft | 465 kts | 207° |
| 2026-04-29 16:30 | -10.97236 | -145.57016 | 40953 ft | 461 kts | 207° |
| 2026-04-29 16:31 | -11.02946 | -145.59984 | 40952 ft | 461 kts | 207° |
| 2026-04-29 16:31 | -11.08650 | -145.62951 | 40952 ft | 461 kts | 207° |
| 2026-04-29 16:32 | -11.14358 | -145.65921 | 40960 ft | 461 kts | 207° |
| 2026-04-29 16:32 | -11.20069 | -145.68894 | 40962 ft | 461 kts | 207° |
| 2026-04-29 16:33 | -11.28590 | -145.73332 | 40955 ft | 461 kts | 206° |
| 2026-04-29 16:33 | -11.34294 | -145.76304 | 40955 ft | 460 kts | 206° |
| 2026-04-29 16:34 | -11.39996 | -145.79277 | 40957 ft | 460 kts | 206° |
| 2026-04-29 16:34 | -11.45667 | -145.82235 | 40957 ft | 457 kts | 206° |
| 2026-04-29 16:35 | -11.51322 | -145.85186 | 40956 ft | 456 kts | 206° |
| 2026-04-29 16:35 | -11.56963 | -145.88131 | 40958 ft | 456 kts | 206° |
| 2026-04-29 16:36 | -11.62608 | -145.91079 | 40957 ft | 456 kts | 206° |
| 2026-04-29 16:36 | -11.68253 | -145.94029 | 40958 ft | 456 kts | 206° |
| 2026-04-29 16:37 | -11.73899 | -145.96981 | 40960 ft | 456 kts | 206° |
| 2026-04-29 16:37 | -11.78627 | -145.99454 | 40958 ft | 456 kts | 206° |
| 2026-04-29 16:38 | -11.85187 | -146.02886 | 40958 ft | 456 kts | 206° |
| 2026-04-29 16:38 | -11.90866 | -146.05859 | 40958 ft | 456 kts | 206° |
| 2026-04-29 16:39 | -11.96468 | -146.08793 | 40957 ft | 456 kts | 206° |
| 2026-04-29 16:39 | -12.02112 | -146.11750 | 40960 ft | 456 kts | 206° |
| 2026-04-29 16:40 | -12.07749 | -146.14706 | 40963 ft | 456 kts | 206° |
| 2026-04-29 16:40 | -12.13392 | -146.17665 | 40963 ft | 456 kts | 206° |
| 2026-04-29 16:41 | -12.19030 | -146.20624 | 40960 ft | 456 kts | 206° |
| 2026-04-29 16:41 | -12.24654 | -146.23577 | 40955 ft | 448 kts | 206° |
| 2026-04-29 16:42 | -12.30096 | -146.26437 | 40964 ft | 435 kts | 206° |
| 2026-04-29 16:42 | -12.35457 | -146.29254 | 40966 ft | 433 kts | 206° |
| 2026-04-29 16:43 | -12.40847 | -146.32087 | 40962 ft | 438 kts | 206° |
| 2026-04-29 16:43 | -12.46310 | -146.34960 | 40963 ft | 444 kts | 206° |
| 2026-04-29 16:44 | -12.51846 | -146.37872 | 40975 ft | 450 kts | 206° |
| 2026-04-29 16:44 | -12.57457 | -146.40826 | 40968 ft | 456 kts | 206° |
| 2026-04-29 16:45 | -12.63107 | -146.43803 | 40966 ft | 457 kts | 206° |
| 2026-04-29 16:45 | -12.68753 | -146.46779 | 40971 ft | 456 kts | 206° |
| 2026-04-29 16:46 | -12.74402 | -146.49758 | 40968 ft | 457 kts | 206° |
| 2026-04-29 16:46 | -12.80051 | -146.52738 | 40967 ft | 457 kts | 206° |
| 2026-04-29 16:47 | -12.85694 | -146.55716 | 40972 ft | 457 kts | 206° |
| 2026-04-29 16:47 | -12.91337 | -146.58696 | 40970 ft | 455 kts | 206° |
| 2026-04-29 16:48 | -12.96958 | -146.61667 | 40972 ft | 454 kts | 206° |
| 2026-04-29 16:48 | -13.02566 | -146.64631 | 40973 ft | 454 kts | 206° |
| 2026-04-29 16:49 | -13.08178 | -146.67599 | 40971 ft | 454 kts | 206° |
| 2026-04-29 16:49 | -13.13793 | -146.70571 | 40974 ft | 454 kts | 206° |
| 2026-04-29 16:50 | -13.19400 | -146.73539 | 40972 ft | 454 kts | 206° |
| 2026-04-29 16:50 | -13.25011 | -146.76511 | 40969 ft | 453 kts | 206° |
| 2026-04-29 16:51 | -13.30614 | -146.79481 | 40975 ft | 453 kts | 206° |
| 2026-04-29 16:51 | -13.36221 | -146.82454 | 40975 ft | 454 kts | 206° |
| 2026-04-29 16:52 | -13.41828 | -146.85429 | 40972 ft | 453 kts | 206° |
| 2026-04-29 16:52 | -13.47413 | -146.88394 | 40974 ft | 452 kts | 206° |
| 2026-04-29 16:53 | -13.52999 | -146.91360 | 40979 ft | 451 kts | 206° |
| 2026-04-29 16:53 | -13.57630 | -146.93822 | 40978 ft | 451 kts | 206° |
| 2026-04-29 16:54 | -13.63207 | -146.96786 | 40977 ft | 451 kts | 206° |
| 2026-04-29 16:54 | -13.68785 | -146.99753 | 40977 ft | 451 kts | 206° |
| 2026-04-29 16:55 | -13.74362 | -147.02722 | 40974 ft | 451 kts | 206° |
| 2026-04-29 16:55 | -13.79943 | -147.05693 | 40978 ft | 451 kts | 206° |
| 2026-04-29 16:56 | -13.85520 | -147.08665 | 40976 ft | 452 kts | 206° |
| 2026-04-29 16:56 | -13.91100 | -147.11639 | 40973 ft | 452 kts | 206° |
| 2026-04-29 16:57 | -13.96675 | -147.14613 | 40978 ft | 451 kts | 206° |
| 2026-04-29 16:57 | -14.02246 | -147.17586 | 40978 ft | 451 kts | 206° |
| 2026-04-29 16:58 | -14.07821 | -147.20563 | 40980 ft | 451 kts | 206° |
| 2026-04-29 16:58 | -14.13393 | -147.23540 | 40981 ft | 451 kts | 206° |
| 2026-04-29 16:59 | -14.18970 | -147.26521 | 40977 ft | 452 kts | 206° |
| 2026-04-29 16:59 | -14.24548 | -147.29504 | 40980 ft | 452 kts | 206° |
| 2026-04-29 17:00 | -14.30132 | -147.32493 | 40981 ft | 452 kts | 206° |
| 2026-04-29 17:00 | -14.35712 | -147.35480 | 40984 ft | 452 kts | 206° |
| 2026-04-29 17:01 | -14.41287 | -147.38467 | 40979 ft | 452 kts | 206° |
| 2026-04-29 17:01 | -14.46867 | -147.41458 | 40979 ft | 451 kts | 206° |
| 2026-04-29 17:02 | -14.52433 | -147.44443 | 40984 ft | 451 kts | 206° |
| 2026-04-29 17:02 | -14.58009 | -147.47436 | 40988 ft | 451 kts | 206° |
| 2026-04-29 17:03 | -14.63584 | -147.50430 | 40985 ft | 452 kts | 206° |
| 2026-04-29 17:03 | -14.69158 | -147.53425 | 40985 ft | 452 kts | 206° |
| 2026-04-29 17:04 | -14.74729 | -147.56420 | 40987 ft | 451 kts | 206° |
| 2026-04-29 17:04 | -14.80303 | -147.59418 | 40987 ft | 452 kts | 206° |
| 2026-04-29 17:05 | -14.85873 | -147.62416 | 40988 ft | 452 kts | 207° |
| 2026-04-29 17:05 | -14.91447 | -147.65418 | 40983 ft | 452 kts | 207° |
| 2026-04-29 17:06 | -14.96824 | -147.68761 | 40988 ft | 451 kts | 214° |
| 2026-04-29 17:06 | -15.01914 | -147.72540 | 40989 ft | 451 kts | 215° |
| 2026-04-29 17:07 | -15.06963 | -147.76398 | 40987 ft | 451 kts | 215° |
| 2026-04-29 17:07 | -15.12000 | -147.80255 | 40989 ft | 451 kts | 215° |
| 2026-04-29 17:08 | -15.17049 | -147.84111 | 40991 ft | 451 kts | 215° |
| 2026-04-29 17:08 | -15.22098 | -147.87963 | 40989 ft | 451 kts | 215° |
| 2026-04-29 17:09 | -15.27146 | -147.91814 | 40990 ft | 451 kts | 215° |
| 2026-04-29 17:09 | -15.32180 | -147.95658 | 40991 ft | 448 kts | 215° |
| 2026-04-29 17:10 | -15.37188 | -147.99485 | 40990 ft | 447 kts | 215° |
| 2026-04-29 17:10 | -15.42156 | -148.03283 | 40993 ft | 447 kts | 215° |
| 2026-04-29 17:11 | -15.47185 | -148.07130 | 40989 ft | 447 kts | 215° |
| 2026-04-29 17:11 | -15.52152 | -148.10932 | 40990 ft | 447 kts | 215° |
| 2026-04-29 17:12 | -15.57180 | -148.14784 | 40990 ft | 447 kts | 215° |
| 2026-04-29 17:12 | -15.61335 | -148.17968 | 40992 ft | 447 kts | 215° |
| 2026-04-29 17:13 | -15.67174 | -148.22446 | 40990 ft | 445 kts | 215° |
| 2026-04-29 17:13 | -15.72145 | -148.26261 | 40817 ft | 444 kts | 215° |
| 2026-04-29 17:14 | -15.74634 | -148.28171 | 40570 ft | 444 kts | 215° |
| 2026-04-29 17:14 | -15.77118 | -148.30079 | 40318 ft | 445 kts | 215° |
| 2026-04-29 17:14 | -15.79609 | -148.31992 | 40084 ft | 446 kts | 215° |
| 2026-04-29 17:14 | -15.82105 | -148.33910 | 39840 ft | 447 kts | 215° |
| 2026-04-29 17:15 | -15.84608 | -148.35835 | 39609 ft | 448 kts | 216° |
| 2026-04-29 17:15 | -15.87101 | -148.37752 | 39195 ft | 444 kts | 216° |
| 2026-04-29 17:15 | -15.89598 | -148.39626 | 38629 ft | 443 kts | 212° |
| 2026-04-29 17:15 | -15.92314 | -148.41140 | 37876 ft | 444 kts | 204° |
| 2026-04-29 17:16 | -15.95143 | -148.42429 | 37201 ft | 444 kts | 203° |
| 2026-04-29 17:16 | -15.98002 | -148.43653 | 36541 ft | 444 kts | 202° |
| 2026-04-29 17:16 | -16.00877 | -148.44843 | 35870 ft | 445 kts | 202° |
| 2026-04-29 17:16 | -16.03768 | -148.46025 | 35174 ft | 447 kts | 201° |
| 2026-04-29 17:17 | -16.06670 | -148.47211 | 34441 ft | 450 kts | 202° |
| 2026-04-29 17:17 | -16.09601 | -148.48413 | 33576 ft | 455 kts | 202° |
| 2026-04-29 17:17 | -16.12553 | -148.49630 | 32731 ft | 458 kts | 202° |
| 2026-04-29 17:17 | -16.15529 | -148.50862 | 31865 ft | 462 kts | 202° |
| 2026-04-29 17:18 | -16.18518 | -148.52102 | 31206 ft | 462 kts | 202° |
| 2026-04-29 17:18 | -16.21500 | -148.53341 | 30610 ft | 460 kts | 202° |
| 2026-04-29 17:18 | -16.24466 | -148.54575 | 30006 ft | 458 kts | 202° |
| 2026-04-29 17:18 | -16.27419 | -148.55804 | 29333 ft | 456 kts | 202° |
| 2026-04-29 17:19 | -16.30349 | -148.57023 | 28732 ft | 452 kts | 202° |
| 2026-04-29 17:19 | -16.33261 | -148.58236 | 28138 ft | 449 kts | 202° |
| 2026-04-29 17:19 | -16.36156 | -148.59441 | 27537 ft | 446 kts | 202° |
| 2026-04-29 17:19 | -16.39029 | -148.60637 | 26945 ft | 444 kts | 202° |
| 2026-04-29 17:20 | -16.41888 | -148.61829 | 26379 ft | 442 kts | 202° |
| 2026-04-29 17:20 | -16.44699 | -148.63001 | 25814 ft | 440 kts | 202° |
| 2026-04-29 17:20 | -16.47536 | -148.64183 | 25239 ft | 438 kts | 202° |
| 2026-04-29 17:20 | -16.50398 | -148.65376 | 24650 ft | 437 kts | 202° |
| 2026-04-29 17:21 | -16.53182 | -148.66537 | 24085 ft | 436 kts | 202° |
| 2026-04-29 17:21 | -16.55999 | -148.67713 | 23492 ft | 436 kts | 202° |
| 2026-04-29 17:21 | -16.58810 | -148.68888 | 22840 ft | 435 kts | 202° |
| 2026-04-29 17:21 | -16.61607 | -148.70058 | 22252 ft | 432 kts | 202° |
| 2026-04-29 17:22 | -16.64392 | -148.71221 | 21671 ft | 430 kts | 202° |
| 2026-04-29 17:22 | -16.67164 | -148.72379 | 21090 ft | 428 kts | 202° |
| 2026-04-29 17:22 | -16.69928 | -148.73533 | 20498 ft | 427 kts | 202° |
| 2026-04-29 17:22 | -16.72675 | -148.74681 | 19912 ft | 427 kts | 202° |
| 2026-04-29 17:23 | -16.75434 | -148.75834 | 19333 ft | 426 kts | 202° |
| 2026-04-29 17:23 | -16.78186 | -148.76985 | 18761 ft | 426 kts | 202° |
| 2026-04-29 17:23 | -16.80943 | -148.78139 | 18141 ft | 426 kts | 201° |
| 2026-04-29 17:23 | -16.83688 | -148.79288 | 17495 ft | 425 kts | 201° |
| 2026-04-29 17:24 | -16.86421 | -148.80434 | 16893 ft | 422 kts | 201° |
| 2026-04-29 17:24 | -16.89133 | -148.81570 | 16300 ft | 418 kts | 201° |
| 2026-04-29 17:24 | -16.91822 | -148.82697 | 15720 ft | 414 kts | 201° |
| 2026-04-29 17:24 | -16.94483 | -148.83814 | 15133 ft | 410 kts | 200° |
| 2026-04-29 17:25 | -16.97122 | -148.84922 | 14541 ft | 407 kts | 200° |
| 2026-04-29 17:25 | -16.99740 | -148.86017 | 13960 ft | 404 kts | 200° |
| 2026-04-29 17:25 | -17.02336 | -148.87106 | 13350 ft | 400 kts | 200° |
| 2026-04-29 17:25 | -17.04858 | -148.88294 | 12759 ft | 397 kts | 208° |
| 2026-04-29 17:26 | -17.07055 | -148.90021 | 12091 ft | 396 kts | 224° |
| 2026-04-29 17:26 | -17.08896 | -148.92148 | 11470 ft | 394 kts | 230° |
| 2026-04-29 17:26 | -17.10557 | -148.94402 | 10879 ft | 390 kts | 233° |
| 2026-04-29 17:26 | -17.12102 | -148.96697 | 10565 ft | 378 kts | 235° |
| 2026-04-29 17:27 | -17.13548 | -148.98920 | 10443 ft | 361 kts | 235° |
| 2026-04-29 17:27 | -17.14923 | -149.01040 | 10323 ft | 345 kts | 235° |
| 2026-04-29 17:27 | -17.16252 | -149.03066 | 10199 ft | 331 kts | 235° |
| 2026-04-29 17:27 | -17.17540 | -149.05000 | 10057 ft | 318 kts | 234° |
| 2026-04-29 17:28 | -17.18784 | -149.06850 | 9876 ft | 303 kts | 234° |
| 2026-04-29 17:28 | -17.19963 | -149.08600 | 9584 ft | 285 kts | 234° |
| 2026-04-29 17:28 | -17.21075 | -149.10244 | 9319 ft | 269 kts | 234° |
| 2026-04-29 17:28 | -17.22135 | -149.11811 | 8951 ft | 260 kts | 234° |
| 2026-04-29 17:29 | -17.23159 | -149.13326 | 8582 ft | 252 kts | 234° |
| 2026-04-29 17:29 | -17.24159 | -149.14802 | 8268 ft | 247 kts | 234° |
| 2026-04-29 17:29 | -17.25149 | -149.16265 | 7978 ft | 246 kts | 234° |
| 2026-04-29 17:29 | -17.25804 | -149.17232 | 7797 ft | 245 kts | 234° |
| 2026-04-29 17:30 | -17.27118 | -149.19175 | 7417 ft | 245 kts | 234° |
| 2026-04-29 17:30 | -17.28100 | -149.20627 | 7125 ft | 243 kts | 234° |
| 2026-04-29 17:30 | -17.29073 | -149.22065 | 6855 ft | 241 kts | 234° |
| 2026-04-29 17:30 | -17.30039 | -149.23496 | 6579 ft | 241 kts | 234° |
| 2026-04-29 17:31 | -17.31005 | -149.24925 | 6301 ft | 240 kts | 234° |
| 2026-04-29 17:31 | -17.31966 | -149.26348 | 6032 ft | 238 kts | 234° |
| 2026-04-29 17:31 | -17.32916 | -149.27756 | 5775 ft | 233 kts | 234° |
| 2026-04-29 17:31 | -17.33825 | -149.29103 | 5583 ft | 219 kts | 234° |
| 2026-04-29 17:32 | -17.34677 | -149.30368 | 5353 ft | 207 kts | 234° |
| 2026-04-29 17:32 | -17.35480 | -149.31557 | 5165 ft | 193 kts | 234° |
| 2026-04-29 17:32 | -17.36234 | -149.32672 | 4857 ft | 184 kts | 234° |
| 2026-04-29 17:32 | -17.36960 | -149.33751 | 4579 ft | 177 kts | 234° |
| 2026-04-29 17:33 | -17.37649 | -149.34779 | 4358 ft | 168 kts | 233° |
| 2026-04-29 17:33 | -17.38305 | -149.35757 | 4161 ft | 162 kts | 234° |
| 2026-04-29 17:33 | -17.38958 | -149.36727 | 3991 ft | 163 kts | 234° |
| 2026-04-29 17:33 | -17.39612 | -149.37699 | 3794 ft | 163 kts | 234° |
| 2026-04-29 17:34 | -17.40266 | -149.38671 | 3612 ft | 162 kts | 234° |
| 2026-04-29 17:34 | -17.40911 | -149.39634 | 3423 ft | 162 kts | 233° |
| 2026-04-29 17:34 | -17.41562 | -149.40600 | 3214 ft | 161 kts | 234° |
| 2026-04-29 17:34 | -17.42205 | -149.41554 | 3027 ft | 159 kts | 235° |
| 2026-04-29 17:35 | -17.43084 | -149.42859 | 2595 ft | 169 kts | 234° |
| 2026-04-29 17:35 | -17.44193 | -149.44507 | 2150 ft | 160 kts | 233° |
| 2026-04-29 17:35 | -17.44826 | -149.45445 | 1907 ft | 156 kts | 232° |
| 2026-04-29 17:36 | -17.45246 | -149.46053 | 1785 ft | 155 kts | 231° |
| 2026-04-29 17:36 | -17.45881 | -149.46980 | 1630 ft | 159 kts | 233° |
| 2026-04-29 17:36 | -17.46531 | -149.47924 | 1439 ft | 159 kts | 233° |
| 2026-04-29 17:36 | -17.47179 | -149.48849 | 1321 ft | 156 kts | 230° |
| 2026-04-29 17:37 | -17.47812 | -149.49752 | 1209 ft | 152 kts | 231° |
| 2026-04-29 17:37 | -17.48434 | -149.50656 | 1111 ft | 155 kts | 232° |
| 2026-04-29 17:37 | -17.49072 | -149.51581 | 1057 ft | 158 kts | 233° |
| 2026-04-29 17:37 | -17.49703 | -149.52513 | 1033 ft | 156 kts | 233° |
| 2026-04-29 17:38 | -17.50325 | -149.53445 | 905 ft | 156 kts | 231° |
| 2026-04-29 17:38 | -17.50949 | -149.54354 | 750 ft | 150 kts | 232° |
| 2026-04-29 17:38 | -17.51555 | -149.55229 | 585 ft | 149 kts | 233° |
| 2026-04-29 17:38 | -17.52187 | -149.56117 | 493 ft | 153 kts | 229° |
| 2026-04-29 17:39 | -17.52801 | -149.57006 | 382 ft | 147 kts | 231° |
| 2026-04-29 17:39 | -17.53399 | -149.57872 | 355 ft | 147 kts | 231° |
| 2026-04-29 17:39 | -17.54016 | -149.58765 | 216 ft | 150 kts | 232° |
| 2026-04-29 17:39 | -17.54605 | -149.59617 | 40 ft | 139 kts | 232° |
| 2026-04-29 17:40 | -17.55131 | -149.60375 | 32 ft | 115 kts | 234° |
| 2026-04-29 17:40 | -17.55550 | -149.60984 | 28 ft | 91 kts | 234° |
| 2026-04-29 17:40 | -17.55871 | -149.61450 | 26 ft | 66 kts | 234° |
| 2026-04-29 17:40 | -17.55963 | -149.61592 | 27 ft | 7 kts | 250° |
| 2026-04-29 17:41 | -17.55971 | -149.61661 | 28 ft | 7 kts | 252° |
| 2026-04-29 17:41 | -17.55999 | -149.61668 | 28 ft | 3 kts | 155° |
| 2026-04-29 17:41 | -17.55995 | -149.61637 | 27 ft | 9 kts | 65° |
| 2026-04-29 17:41 | -17.55960 | -149.61577 | 27 ft | 10 kts | 53° |
| 2026-04-29 17:42 | -17.55913 | -149.61509 | 27 ft | 13 kts | 54° |
| 2026-04-29 17:42 | -17.55856 | -149.61428 | 32 ft | 15 kts | 54° |
| 2026-04-29 17:42 | -17.55786 | -149.61328 | 29 ft | 18 kts | 54° |
| 2026-04-29 17:42 | -17.55708 | -149.61215 | 25 ft | 20 kts | 55° |
| 2026-04-29 17:43 | -17.55689 | -149.61187 | 26 ft | 3 kts | 55° |
| 2026-04-29 17:43 | -17.55687 | -149.61142 | 27 ft | 8 kts | 111° |
| 2026-04-29 17:43 | -17.55718 | -149.61107 | 26 ft | 2 kts | 143° |
| 2026-04-29 17:43 | -17.55732 | -149.61095 | 27 ft | 4 kts | 143° |
| 2026-04-29 17:44 | -17.55758 | -149.61076 | 27 ft | 6 kts | 145° |
| 2026-04-29 17:44 | -17.55787 | -149.61055 | 28 ft | 5 kts | 145° |
| 2026-04-29 17:44 | -17.55821 | -149.61030 | 28 ft | 4 kts | 144° |
| 2026-04-29 17:44 | -17.55826 | -149.61027 | 28 ft | 2 kts | 144° |
| 2026-04-29 17:45 | -17.55841 | -149.61016 | 28 ft | 4 kts | 144° |
| 2026-04-29 17:45 | -17.55850 | -149.61009 | 28 ft | 0 kts | 144° |